<?xml version="1.0" encoding="UTF-8" standalone="no" ?>
<gpx xmlns="http://www.topografix.com/GPX/1/1" xmlns:xsi="http://www.w3.org/2001/XMLSchema-instance" xsi:schemaLocation="http://www.topografix.com/GPX/1/1 http://www.topografix.com/GPX/1/1/gpx.xsd" version="1.1" creator="VisuGPX - https://www.visugpx.com">
  <metadata>
    <name>Départ Nalinnes vers Pry 17 mars 2022</name>
  </metadata>
  <trk>
    <name><![CDATA[Départ Nalinnes vers Pry 17 mars 2022]]></name>
    <extensions>
      <line xmlns="http://www.topografix.com/GPX/gpx_style/0/2">
        <color>0000FF</color>
        <width>4</width>
      </line>
    </extensions>
    <trkseg>
      <trkpt lat="50.34329" lon="4.44261">
        <ele>225.2</ele>
        <time>2022-03-17T12:39:28Z</time>
      </trkpt>
      <trkpt lat="50.34312" lon="4.44236">
        <ele>221.6</ele>
        <time>2022-03-17T12:39:35Z</time>
      </trkpt>
      <trkpt lat="50.34297" lon="4.44174">
        <ele>221.4</ele>
        <time>2022-03-17T12:39:49Z</time>
      </trkpt>
      <trkpt lat="50.34232" lon="4.44178">
        <ele>221.6</ele>
        <time>2022-03-17T12:40:03Z</time>
      </trkpt>
      <trkpt lat="50.34097" lon="4.44168">
        <ele>222.4</ele>
        <time>2022-03-17T12:40:27Z</time>
      </trkpt>
      <trkpt lat="50.33935" lon="4.44183">
        <ele>223</ele>
        <time>2022-03-17T12:40:54Z</time>
      </trkpt>
      <trkpt lat="50.33812" lon="4.44186">
        <ele>223.2</ele>
        <time>2022-03-17T12:41:15Z</time>
      </trkpt>
      <trkpt lat="50.33806" lon="4.44182">
        <ele>227.5</ele>
      </trkpt>
      <trkpt lat="50.33809" lon="4.44165">
        <ele>223.2</ele>
        <time>2022-03-17T12:41:19Z</time>
      </trkpt>
      <trkpt lat="50.33845" lon="4.44072">
        <ele>223.4</ele>
        <time>2022-03-17T12:41:33Z</time>
      </trkpt>
      <trkpt lat="50.33895" lon="4.43928">
        <ele>224</ele>
        <time>2022-03-17T12:41:52Z</time>
      </trkpt>
      <trkpt lat="50.33903" lon="4.4391">
        <ele>228.5</ele>
      </trkpt>
      <trkpt lat="50.33893" lon="4.43909">
        <ele>228.8</ele>
      </trkpt>
      <trkpt lat="50.33876" lon="4.43898">
        <ele>229</ele>
        <time>2022-03-17T12:41:59Z</time>
      </trkpt>
      <trkpt lat="50.33806" lon="4.43855">
        <ele>228</ele>
      </trkpt>
      <trkpt lat="50.33744" lon="4.43846">
        <ele>224</ele>
        <time>2022-03-17T12:42:25Z</time>
      </trkpt>
      <trkpt lat="50.33644" lon="4.43812">
        <ele>224.1</ele>
        <time>2022-03-17T12:42:44Z</time>
      </trkpt>
      <trkpt lat="50.33623" lon="4.43797">
        <ele>223</ele>
        <time>2022-03-17T12:42:50Z</time>
      </trkpt>
      <trkpt lat="50.33582" lon="4.43763">
        <ele>222.2</ele>
        <time>2022-03-17T12:43:02Z</time>
      </trkpt>
      <trkpt lat="50.33505" lon="4.43688">
        <ele>221</ele>
        <time>2022-03-17T12:43:22Z</time>
      </trkpt>
      <trkpt lat="50.33457" lon="4.43644">
        <ele>220.2</ele>
        <time>2022-03-17T12:43:34Z</time>
      </trkpt>
      <trkpt lat="50.33354" lon="4.43554">
        <ele>218.7</ele>
        <time>2022-03-17T12:43:59Z</time>
      </trkpt>
      <trkpt lat="50.33277" lon="4.43487">
        <ele>216.9</ele>
        <time>2022-03-17T12:44:17Z</time>
      </trkpt>
      <trkpt lat="50.33259" lon="4.43473">
        <ele>216.3</ele>
      </trkpt>
      <trkpt lat="50.33235" lon="4.43507">
        <ele>216.4</ele>
        <time>2022-03-17T12:44:23Z</time>
      </trkpt>
      <trkpt lat="50.33216" lon="4.43547">
        <ele>215.6</ele>
        <time>2022-03-17T12:44:29Z</time>
      </trkpt>
      <trkpt lat="50.33172" lon="4.43618">
        <ele>214</ele>
        <time>2022-03-17T12:44:41Z</time>
      </trkpt>
      <trkpt lat="50.3314" lon="4.43669">
        <ele>212.6</ele>
        <time>2022-03-17T12:44:53Z</time>
      </trkpt>
      <trkpt lat="50.33031" lon="4.4379">
        <ele>212.8</ele>
      </trkpt>
      <trkpt lat="50.33004" lon="4.438">
        <ele>210.4</ele>
        <time>2022-03-17T12:45:22Z</time>
      </trkpt>
      <trkpt lat="50.32935" lon="4.43819">
        <ele>215</ele>
        <time>2022-03-17T12:45:39Z</time>
      </trkpt>
      <trkpt lat="50.32938" lon="4.43846">
        <ele>211</ele>
        <time>2022-03-17T12:45:44Z</time>
      </trkpt>
      <trkpt lat="50.32944" lon="4.43907">
        <ele>215</ele>
      </trkpt>
      <trkpt lat="50.32936" lon="4.43972">
        <ele>211.2</ele>
        <time>2022-03-17T12:45:58Z</time>
      </trkpt>
      <trkpt lat="50.32907" lon="4.44052">
        <ele>211.2</ele>
        <time>2022-03-17T12:46:09Z</time>
      </trkpt>
      <trkpt lat="50.3292" lon="4.44093">
        <ele>213.5</ele>
        <time>2022-03-17T12:46:15Z</time>
      </trkpt>
      <trkpt lat="50.32965" lon="4.44188">
        <ele>215.9</ele>
      </trkpt>
      <trkpt lat="50.33015" lon="4.44271">
        <ele>218</ele>
        <time>2022-03-17T12:46:44Z</time>
      </trkpt>
      <trkpt lat="50.33079" lon="4.44356">
        <ele>212.4</ele>
        <time>2022-03-17T12:47:01Z</time>
      </trkpt>
      <trkpt lat="50.33097" lon="4.4437">
        <ele>212.8</ele>
        <time>2022-03-17T12:47:09Z</time>
      </trkpt>
      <trkpt lat="50.33081" lon="4.44383">
        <ele>219.2</ele>
      </trkpt>
      <trkpt lat="50.33055" lon="4.4439">
        <ele>213.2</ele>
        <time>2022-03-17T12:47:23Z</time>
      </trkpt>
      <trkpt lat="50.32968" lon="4.44401">
        <ele>212.8</ele>
        <time>2022-03-17T12:47:39Z</time>
      </trkpt>
      <trkpt lat="50.32844" lon="4.44411">
        <ele>211.6</ele>
        <time>2022-03-17T12:47:58Z</time>
      </trkpt>
      <trkpt lat="50.32781" lon="4.44416">
        <ele>210</ele>
        <time>2022-03-17T12:48:17Z</time>
      </trkpt>
      <trkpt lat="50.32722" lon="4.44421">
        <ele>211.2</ele>
      </trkpt>
      <trkpt lat="50.32664" lon="4.44436">
        <ele>209</ele>
        <time>2022-03-17T12:48:37Z</time>
      </trkpt>
      <trkpt lat="50.32597" lon="4.44469">
        <ele>213.5</ele>
        <time>2022-03-17T12:48:50Z</time>
      </trkpt>
      <trkpt lat="50.32525" lon="4.44512">
        <ele>212</ele>
        <time>2022-03-17T12:49:04Z</time>
      </trkpt>
      <trkpt lat="50.3252" lon="4.44482">
        <ele>208.8</ele>
        <time>2022-03-17T12:49:11Z</time>
      </trkpt>
      <trkpt lat="50.32504" lon="4.44399">
        <ele>205.4</ele>
        <time>2022-03-17T12:49:26Z</time>
      </trkpt>
      <trkpt lat="50.32478" lon="4.44422">
        <ele>205.8</ele>
        <time>2022-03-17T12:49:37Z</time>
      </trkpt>
      <trkpt lat="50.32449" lon="4.44455">
        <ele>204.6</ele>
        <time>2022-03-17T12:49:45Z</time>
      </trkpt>
      <trkpt lat="50.32426" lon="4.44501">
        <ele>203.8</ele>
        <time>2022-03-17T12:49:53Z</time>
      </trkpt>
      <trkpt lat="50.32424" lon="4.44529">
        <ele>203.4</ele>
        <time>2022-03-17T12:49:57Z</time>
      </trkpt>
      <trkpt lat="50.32428" lon="4.44596">
        <ele>202.4</ele>
        <time>2022-03-17T12:50:08Z</time>
      </trkpt>
      <trkpt lat="50.32425" lon="4.44665">
        <ele>201.4</ele>
        <time>2022-03-17T12:50:17Z</time>
      </trkpt>
      <trkpt lat="50.32426" lon="4.44688">
        <ele>201.2</ele>
        <time>2022-03-17T12:50:27Z</time>
      </trkpt>
      <trkpt lat="50.32428" lon="4.44704">
        <ele>201.1</ele>
      </trkpt>
      <trkpt lat="50.32437" lon="4.44737">
        <ele>200.7</ele>
      </trkpt>
      <trkpt lat="50.32432" lon="4.4475">
        <ele>200.5</ele>
      </trkpt>
      <trkpt lat="50.32429" lon="4.44798">
        <ele>200.9</ele>
        <time>2022-03-17T12:51:13Z</time>
      </trkpt>
      <trkpt lat="50.32434" lon="4.44845">
        <ele>201.8</ele>
      </trkpt>
      <trkpt lat="50.32437" lon="4.44872">
        <ele>202</ele>
      </trkpt>
      <trkpt lat="50.32432" lon="4.44891">
        <ele>199</ele>
        <time>2022-03-17T12:51:26Z</time>
      </trkpt>
      <trkpt lat="50.32401" lon="4.44976">
        <ele>198.8</ele>
        <time>2022-03-17T12:51:44Z</time>
      </trkpt>
      <trkpt lat="50.32364" lon="4.45068">
        <ele>198</ele>
        <time>2022-03-17T12:51:57Z</time>
      </trkpt>
      <trkpt lat="50.32349" lon="4.451">
        <ele>198</ele>
        <time>2022-03-17T12:52:02Z</time>
      </trkpt>
      <trkpt lat="50.3233" lon="4.45155">
        <ele>197.6</ele>
        <time>2022-03-17T12:52:10Z</time>
      </trkpt>
      <trkpt lat="50.32327" lon="4.45166">
        <ele>201.2</ele>
      </trkpt>
      <trkpt lat="50.32333" lon="4.45177">
        <ele>197.6</ele>
        <time>2022-03-17T12:52:14Z</time>
      </trkpt>
      <trkpt lat="50.32371" lon="4.45219">
        <ele>203.2</ele>
      </trkpt>
      <trkpt lat="50.32382" lon="4.45252">
        <ele>197.8</ele>
        <time>2022-03-17T12:52:29Z</time>
      </trkpt>
      <trkpt lat="50.32372" lon="4.45274">
        <ele>198</ele>
        <time>2022-03-17T12:52:35Z</time>
      </trkpt>
      <trkpt lat="50.32327" lon="4.45315">
        <ele>199</ele>
        <time>2022-03-17T12:52:47Z</time>
      </trkpt>
      <trkpt lat="50.32285" lon="4.45371">
        <ele>199</ele>
        <time>2022-03-17T12:53:00Z</time>
      </trkpt>
      <trkpt lat="50.32266" lon="4.45389">
        <ele>198.8</ele>
        <time>2022-03-17T12:53:05Z</time>
      </trkpt>
      <trkpt lat="50.32235" lon="4.45419">
        <ele>205.1</ele>
        <time>2022-03-17T12:53:14Z</time>
      </trkpt>
      <trkpt lat="50.32194" lon="4.45477">
        <ele>199.8</ele>
        <time>2022-03-17T12:53:27Z</time>
      </trkpt>
      <trkpt lat="50.32175" lon="4.45489">
        <ele>200</ele>
        <time>2022-03-17T12:53:32Z</time>
      </trkpt>
      <trkpt lat="50.32138" lon="4.45518">
        <ele>201</ele>
        <time>2022-03-17T12:53:46Z</time>
      </trkpt>
      <trkpt lat="50.32116" lon="4.45544">
        <ele>202</ele>
        <time>2022-03-17T12:53:59Z</time>
      </trkpt>
      <trkpt lat="50.32111" lon="4.45556">
        <ele>202.2</ele>
        <time>2022-03-17T12:54:03Z</time>
      </trkpt>
      <trkpt lat="50.32081" lon="4.45611">
        <ele>204.4</ele>
        <time>2022-03-17T12:54:21Z</time>
      </trkpt>
      <trkpt lat="50.3207" lon="4.45621">
        <ele>216.1</ele>
      </trkpt>
      <trkpt lat="50.32061" lon="4.45613">
        <ele>205.6</ele>
        <time>2022-03-17T12:54:35Z</time>
      </trkpt>
      <trkpt lat="50.32049" lon="4.45611">
        <ele>207</ele>
        <time>2022-03-17T12:54:51Z</time>
      </trkpt>
      <trkpt lat="50.32036" lon="4.45657">
        <ele>208</ele>
        <time>2022-03-17T12:55:03Z</time>
      </trkpt>
      <trkpt lat="50.32004" lon="4.45778">
        <ele>210.2</ele>
        <time>2022-03-17T12:55:24Z</time>
      </trkpt>
      <trkpt lat="50.3194" lon="4.45931">
        <ele>213</ele>
        <time>2022-03-17T12:55:46Z</time>
      </trkpt>
      <trkpt lat="50.3186" lon="4.46047">
        <ele>215.2</ele>
        <time>2022-03-17T12:56:08Z</time>
      </trkpt>
      <trkpt lat="50.31793" lon="4.46139">
        <ele>216</ele>
        <time>2022-03-17T12:56:23Z</time>
      </trkpt>
      <trkpt lat="50.31734" lon="4.4616">
        <ele>216</ele>
        <time>2022-03-17T12:56:33Z</time>
      </trkpt>
      <trkpt lat="50.31674" lon="4.46178">
        <ele>216.2</ele>
        <time>2022-03-17T12:56:45Z</time>
      </trkpt>
      <trkpt lat="50.31568" lon="4.46258">
        <ele>216</ele>
        <time>2022-03-17T12:57:03Z</time>
      </trkpt>
      <trkpt lat="50.31525" lon="4.4631">
        <ele>220.2</ele>
        <time>2022-03-17T12:57:18Z</time>
      </trkpt>
      <trkpt lat="50.31506" lon="4.46258">
        <ele>217.7</ele>
      </trkpt>
      <trkpt lat="50.31503" lon="4.46224">
        <ele>216</ele>
        <time>2022-03-17T12:57:30Z</time>
      </trkpt>
      <trkpt lat="50.31503" lon="4.4615">
        <ele>216.9</ele>
      </trkpt>
      <trkpt lat="50.31519" lon="4.46051">
        <ele>215.8</ele>
        <time>2022-03-17T12:57:51Z</time>
      </trkpt>
      <trkpt lat="50.31519" lon="4.45943">
        <ele>216</ele>
        <time>2022-03-17T12:58:04Z</time>
      </trkpt>
      <trkpt lat="50.31526" lon="4.45899">
        <ele>216</ele>
        <time>2022-03-17T12:58:09Z</time>
      </trkpt>
      <trkpt lat="50.31557" lon="4.4581">
        <ele>216.2</ele>
        <time>2022-03-17T12:58:22Z</time>
      </trkpt>
      <trkpt lat="50.31615" lon="4.45652">
        <ele>215.4</ele>
        <time>2022-03-17T12:58:44Z</time>
      </trkpt>
      <trkpt lat="50.31638" lon="4.45473">
        <ele>214.2</ele>
        <time>2022-03-17T12:59:06Z</time>
      </trkpt>
      <trkpt lat="50.31642" lon="4.45415">
        <ele>214.9</ele>
        <time>2022-03-17T12:59:17Z</time>
      </trkpt>
      <trkpt lat="50.31571" lon="4.45412">
        <ele>213.8</ele>
        <time>2022-03-17T12:59:28Z</time>
      </trkpt>
      <trkpt lat="50.31475" lon="4.45395">
        <ele>221.9</ele>
        <time>2022-03-17T12:59:50Z</time>
      </trkpt>
      <trkpt lat="50.31427" lon="4.45414">
        <ele>215.2</ele>
        <time>2022-03-17T12:59:58Z</time>
      </trkpt>
      <trkpt lat="50.31402" lon="4.45423">
        <ele>222.9</ele>
      </trkpt>
      <trkpt lat="50.31389" lon="4.45442">
        <ele>215.8</ele>
        <time>2022-03-17T13:00:06Z</time>
      </trkpt>
      <trkpt lat="50.31296" lon="4.45526">
        <ele>217.2</ele>
        <time>2022-03-17T13:00:27Z</time>
      </trkpt>
      <trkpt lat="50.31232" lon="4.4557">
        <ele>226</ele>
        <time>2022-03-17T13:00:46Z</time>
      </trkpt>
      <trkpt lat="50.3123" lon="4.45602">
        <ele>219</ele>
        <time>2022-03-17T13:00:56Z</time>
      </trkpt>
      <trkpt lat="50.3122" lon="4.45691">
        <ele>219.8</ele>
        <time>2022-03-17T13:01:12Z</time>
      </trkpt>
      <trkpt lat="50.31209" lon="4.45781">
        <ele>220.2</ele>
        <time>2022-03-17T13:01:26Z</time>
      </trkpt>
      <trkpt lat="50.31201" lon="4.45894">
        <ele>221.4</ele>
        <time>2022-03-17T13:01:45Z</time>
      </trkpt>
      <trkpt lat="50.31202" lon="4.45972">
        <ele>222.4</ele>
        <time>2022-03-17T13:01:57Z</time>
      </trkpt>
      <trkpt lat="50.31201" lon="4.46167">
        <ele>223</ele>
        <time>2022-03-17T13:02:23Z</time>
      </trkpt>
      <trkpt lat="50.31199" lon="4.46321">
        <ele>222.8</ele>
        <time>2022-03-17T13:02:43Z</time>
      </trkpt>
      <trkpt lat="50.31195" lon="4.46461">
        <ele>222.6</ele>
        <time>2022-03-17T13:03:02Z</time>
      </trkpt>
      <trkpt lat="50.31182" lon="4.46576">
        <ele>223</ele>
        <time>2022-03-17T13:03:17Z</time>
      </trkpt>
      <trkpt lat="50.31176" lon="4.46611">
        <ele>223</ele>
        <time>2022-03-17T13:03:22Z</time>
      </trkpt>
      <trkpt lat="50.31168" lon="4.46684">
        <ele>225.9</ele>
      </trkpt>
      <trkpt lat="50.31166" lon="4.46751">
        <ele>223.4</ele>
        <time>2022-03-17T13:03:40Z</time>
      </trkpt>
      <trkpt lat="50.31163" lon="4.46862">
        <ele>223.6</ele>
        <time>2022-03-17T13:03:54Z</time>
      </trkpt>
      <trkpt lat="50.31164" lon="4.46896">
        <ele>227</ele>
      </trkpt>
      <trkpt lat="50.31159" lon="4.46925">
        <ele>223.8</ele>
        <time>2022-03-17T13:04:03Z</time>
      </trkpt>
      <trkpt lat="50.31148" lon="4.47061">
        <ele>224.4</ele>
        <time>2022-03-17T13:04:22Z</time>
      </trkpt>
      <trkpt lat="50.31147" lon="4.47082">
        <ele>228.3</ele>
      </trkpt>
      <trkpt lat="50.31133" lon="4.47079">
        <ele>224.4</ele>
        <time>2022-03-17T13:04:28Z</time>
      </trkpt>
      <trkpt lat="50.31073" lon="4.47043">
        <ele>224.6</ele>
        <time>2022-03-17T13:04:42Z</time>
      </trkpt>
      <trkpt lat="50.31024" lon="4.47017">
        <ele>225</ele>
        <time>2022-03-17T13:04:55Z</time>
      </trkpt>
      <trkpt lat="50.3098" lon="4.47037">
        <ele>225.2</ele>
        <time>2022-03-17T13:05:05Z</time>
      </trkpt>
      <trkpt lat="50.30883" lon="4.47091">
        <ele>226.2</ele>
        <time>2022-03-17T13:05:25Z</time>
      </trkpt>
      <trkpt lat="50.3085" lon="4.4711">
        <ele>226.6</ele>
        <time>2022-03-17T13:05:32Z</time>
      </trkpt>
      <trkpt lat="50.30804" lon="4.47125">
        <ele>227.4</ele>
        <time>2022-03-17T13:05:41Z</time>
      </trkpt>
      <trkpt lat="50.30765" lon="4.47142">
        <ele>228.2</ele>
        <time>2022-03-17T13:05:49Z</time>
      </trkpt>
      <trkpt lat="50.30729" lon="4.47163">
        <ele>229</ele>
        <time>2022-03-17T13:05:57Z</time>
      </trkpt>
      <trkpt lat="50.30671" lon="4.47201">
        <ele>230.2</ele>
        <time>2022-03-17T13:06:09Z</time>
      </trkpt>
      <trkpt lat="50.30618" lon="4.47239">
        <ele>231.8</ele>
        <time>2022-03-17T13:06:25Z</time>
      </trkpt>
      <trkpt lat="50.30563" lon="4.47282">
        <ele>233</ele>
        <time>2022-03-17T13:06:42Z</time>
      </trkpt>
      <trkpt lat="50.3053" lon="4.47305">
        <ele>233.6</ele>
        <time>2022-03-17T13:06:51Z</time>
      </trkpt>
      <trkpt lat="50.30489" lon="4.47338">
        <ele>234.2</ele>
        <time>2022-03-17T13:07:04Z</time>
      </trkpt>
      <trkpt lat="50.30419" lon="4.47386">
        <ele>234.4</ele>
        <time>2022-03-17T13:07:22Z</time>
      </trkpt>
      <trkpt lat="50.30404" lon="4.47397">
        <ele>234.8</ele>
        <time>2022-03-17T13:08:21Z</time>
      </trkpt>
      <trkpt lat="50.30373" lon="4.47422">
        <ele>234.8</ele>
        <time>2022-03-17T13:08:38Z</time>
      </trkpt>
      <trkpt lat="50.30332" lon="4.47454">
        <ele>234.6</ele>
        <time>2022-03-17T13:10:27Z</time>
      </trkpt>
      <trkpt lat="50.30268" lon="4.47519">
        <ele>233.2</ele>
        <time>2022-03-17T13:10:47Z</time>
      </trkpt>
      <trkpt lat="50.30232" lon="4.47567">
        <ele>232.2</ele>
        <time>2022-03-17T13:10:59Z</time>
      </trkpt>
      <trkpt lat="50.3016" lon="4.47663">
        <ele>229.4</ele>
        <time>2022-03-17T13:11:22Z</time>
      </trkpt>
      <trkpt lat="50.30095" lon="4.47731">
        <ele>227.6</ele>
        <time>2022-03-17T13:11:36Z</time>
      </trkpt>
      <trkpt lat="50.29992" lon="4.47853">
        <ele>224.8</ele>
        <time>2022-03-17T13:11:57Z</time>
      </trkpt>
      <trkpt lat="50.29972" lon="4.47867">
        <ele>223.8</ele>
        <time>2022-03-17T13:12:05Z</time>
      </trkpt>
      <trkpt lat="50.29935" lon="4.47819">
        <ele>222.4</ele>
        <time>2022-03-17T13:12:16Z</time>
      </trkpt>
      <trkpt lat="50.29912" lon="4.47766">
        <ele>221.2</ele>
        <time>2022-03-17T13:12:28Z</time>
      </trkpt>
      <trkpt lat="50.29852" lon="4.47826">
        <ele>220.6</ele>
        <time>2022-03-17T13:12:43Z</time>
      </trkpt>
      <trkpt lat="50.29756" lon="4.47944">
        <ele>221.6</ele>
        <time>2022-03-17T13:13:05Z</time>
      </trkpt>
      <trkpt lat="50.29716" lon="4.47993">
        <ele>222</ele>
        <time>2022-03-17T13:13:14Z</time>
      </trkpt>
      <trkpt lat="50.29687" lon="4.4809">
        <ele>222.2</ele>
        <time>2022-03-17T13:13:28Z</time>
      </trkpt>
      <trkpt lat="50.2968" lon="4.48125">
        <ele>226.7</ele>
      </trkpt>
      <trkpt lat="50.29662" lon="4.48151">
        <ele>222</ele>
        <time>2022-03-17T13:13:36Z</time>
      </trkpt>
      <trkpt lat="50.29619" lon="4.48205">
        <ele>222.2</ele>
        <time>2022-03-17T13:13:46Z</time>
      </trkpt>
      <trkpt lat="50.29611" lon="4.48212">
        <ele>221</ele>
        <time>2022-03-17T13:14:59Z</time>
      </trkpt>
      <trkpt lat="50.2959" lon="4.48234">
        <ele>220.8</ele>
        <time>2022-03-17T13:15:07Z</time>
      </trkpt>
      <trkpt lat="50.29559" lon="4.48279">
        <ele>220.4</ele>
        <time>2022-03-17T13:15:16Z</time>
      </trkpt>
      <trkpt lat="50.2954" lon="4.48296">
        <ele>220.2</ele>
        <time>2022-03-17T13:15:20Z</time>
      </trkpt>
      <trkpt lat="50.29461" lon="4.48348">
        <ele>218.8</ele>
        <time>2022-03-17T13:15:33Z</time>
      </trkpt>
      <trkpt lat="50.29435" lon="4.48367">
        <ele>218</ele>
        <time>2022-03-17T13:15:42Z</time>
      </trkpt>
      <trkpt lat="50.2946" lon="4.48456">
        <ele>215.8</ele>
        <time>2022-03-17T13:16:01Z</time>
      </trkpt>
      <trkpt lat="50.29465" lon="4.48478">
        <ele>215.2</ele>
        <time>2022-03-17T13:16:07Z</time>
      </trkpt>
      <trkpt lat="50.29447" lon="4.48506">
        <ele>214.8</ele>
        <time>2022-03-17T13:16:13Z</time>
      </trkpt>
      <trkpt lat="50.29452" lon="4.48534">
        <ele>214.4</ele>
        <time>2022-03-17T13:16:17Z</time>
      </trkpt>
      <trkpt lat="50.29455" lon="4.48563">
        <ele>214.2</ele>
      </trkpt>
      <trkpt lat="50.29452" lon="4.48601">
        <ele>213.4</ele>
        <time>2022-03-17T13:16:26Z</time>
      </trkpt>
      <trkpt lat="50.29434" lon="4.48645">
        <ele>212.8</ele>
        <time>2022-03-17T13:16:33Z</time>
      </trkpt>
      <trkpt lat="50.29424" lon="4.4872">
        <ele>216.9</ele>
        <time>2022-03-17T13:16:45Z</time>
      </trkpt>
      <trkpt lat="50.29422" lon="4.48756">
        <ele>217.4</ele>
        <time>2022-03-17T13:16:50Z</time>
      </trkpt>
      <trkpt lat="50.29422" lon="4.48786">
        <ele>218.2</ele>
      </trkpt>
      <trkpt lat="50.29404" lon="4.48824">
        <ele>213.4</ele>
        <time>2022-03-17T13:17:00Z</time>
      </trkpt>
      <trkpt lat="50.29366" lon="4.4891">
        <ele>219.6</ele>
        <time>2022-03-17T13:17:15Z</time>
      </trkpt>
      <trkpt lat="50.29348" lon="4.49056">
        <ele>215</ele>
        <time>2022-03-17T13:17:36Z</time>
      </trkpt>
      <trkpt lat="50.29339" lon="4.49119">
        <ele>216</ele>
        <time>2022-03-17T13:17:46Z</time>
      </trkpt>
      <trkpt lat="50.29325" lon="4.4925">
        <ele>218.2</ele>
        <time>2022-03-17T13:18:08Z</time>
      </trkpt>
      <trkpt lat="50.29299" lon="4.49341">
        <ele>219.6</ele>
        <time>2022-03-17T13:18:26Z</time>
      </trkpt>
      <trkpt lat="50.29261" lon="4.4944">
        <ele>221</ele>
        <time>2022-03-17T13:18:44Z</time>
      </trkpt>
      <trkpt lat="50.29224" lon="4.49521">
        <ele>222.6</ele>
        <time>2022-03-17T13:19:02Z</time>
      </trkpt>
      <trkpt lat="50.2918" lon="4.49622">
        <ele>223.8</ele>
        <time>2022-03-17T13:19:23Z</time>
      </trkpt>
      <trkpt lat="50.29128" lon="4.49755">
        <ele>224.4</ele>
        <time>2022-03-17T13:19:47Z</time>
      </trkpt>
      <trkpt lat="50.29054" lon="4.49964">
        <ele>222.6</ele>
        <time>2022-03-17T13:20:14Z</time>
      </trkpt>
      <trkpt lat="50.29013" lon="4.50171">
        <ele>219.6</ele>
        <time>2022-03-17T13:20:39Z</time>
      </trkpt>
      <trkpt lat="50.28993" lon="4.50315">
        <ele>217</ele>
        <time>2022-03-17T13:20:58Z</time>
      </trkpt>
      <trkpt lat="50.2896" lon="4.50385">
        <ele>216</ele>
        <time>2022-03-17T13:21:13Z</time>
      </trkpt>
      <trkpt lat="50.28918" lon="4.50454">
        <ele>215.8</ele>
        <time>2022-03-17T13:21:27Z</time>
      </trkpt>
      <trkpt lat="50.289" lon="4.50491">
        <ele>219.3</ele>
        <time>2022-03-17T13:21:39Z</time>
      </trkpt>
      <trkpt lat="50.28891" lon="4.50521">
        <ele>216.2</ele>
        <time>2022-03-17T13:22:32Z</time>
      </trkpt>
      <trkpt lat="50.28842" lon="4.50586">
        <ele>217.2</ele>
        <time>2022-03-17T13:22:52Z</time>
      </trkpt>
      <trkpt lat="50.28781" lon="4.50635">
        <ele>218.6</ele>
        <time>2022-03-17T13:23:10Z</time>
      </trkpt>
      <trkpt lat="50.28741" lon="4.50658">
        <ele>226.9</ele>
      </trkpt>
      <trkpt lat="50.28719" lon="4.50691">
        <ele>219.2</ele>
        <time>2022-03-17T13:23:25Z</time>
      </trkpt>
      <trkpt lat="50.28676" lon="4.5077">
        <ele>219.8</ele>
        <time>2022-03-17T13:23:41Z</time>
      </trkpt>
      <trkpt lat="50.28668" lon="4.50786">
        <ele>227.1</ele>
      </trkpt>
      <trkpt lat="50.28661" lon="4.50836">
        <ele>225.4</ele>
      </trkpt>
      <trkpt lat="50.28655" lon="4.50897">
        <ele>218.8</ele>
        <time>2022-03-17T13:23:59Z</time>
      </trkpt>
      <trkpt lat="50.28654" lon="4.50986">
        <ele>217</ele>
        <time>2022-03-17T13:24:10Z</time>
      </trkpt>
      <trkpt lat="50.28661" lon="4.51107">
        <ele>213.4</ele>
        <time>2022-03-17T13:24:26Z</time>
      </trkpt>
      <trkpt lat="50.28669" lon="4.51188">
        <ele>210.6</ele>
        <time>2022-03-17T13:24:37Z</time>
      </trkpt>
      <trkpt lat="50.28675" lon="4.51261">
        <ele>208.2</ele>
        <time>2022-03-17T13:24:47Z</time>
      </trkpt>
      <trkpt lat="50.28678" lon="4.51329">
        <ele>205</ele>
        <time>2022-03-17T13:24:59Z</time>
      </trkpt>
      <trkpt lat="50.28682" lon="4.51371">
        <ele>203.2</ele>
        <time>2022-03-17T13:25:05Z</time>
      </trkpt>
      <trkpt lat="50.28682" lon="4.51429">
        <ele>195.6</ele>
        <time>2022-03-17T13:25:19Z</time>
      </trkpt>
      <trkpt lat="50.28681" lon="4.51446">
        <ele>194.3</ele>
      </trkpt>
      <trkpt lat="50.2867" lon="4.51501">
        <ele>190.8</ele>
      </trkpt>
      <trkpt lat="50.28673" lon="4.51561">
        <ele>189.1</ele>
      </trkpt>
      <trkpt lat="50.2868" lon="4.51604">
        <ele>194.2</ele>
        <time>2022-03-17T13:25:40Z</time>
      </trkpt>
      <trkpt lat="50.28681" lon="4.51626">
        <ele>187.4</ele>
        <time>2022-03-17T13:26:48Z</time>
      </trkpt>
      <trkpt lat="50.28673" lon="4.51639">
        <ele>186.8</ele>
        <time>2022-03-17T13:27:07Z</time>
      </trkpt>
      <trkpt lat="50.28648" lon="4.51649">
        <ele>187.2</ele>
        <time>2022-03-17T13:27:16Z</time>
      </trkpt>
      <trkpt lat="50.28604" lon="4.5165">
        <ele>187</ele>
        <time>2022-03-17T13:27:27Z</time>
      </trkpt>
      <trkpt lat="50.28594" lon="4.51644">
        <ele>193.4</ele>
      </trkpt>
      <trkpt lat="50.28587" lon="4.51628">
        <ele>187.4</ele>
        <time>2022-03-17T13:27:32Z</time>
      </trkpt>
      <trkpt lat="50.2853" lon="4.51497">
        <ele>188.6</ele>
        <time>2022-03-17T13:27:53Z</time>
      </trkpt>
      <trkpt lat="50.28454" lon="4.51346">
        <ele>189.6</ele>
        <time>2022-03-17T13:28:16Z</time>
      </trkpt>
      <trkpt lat="50.28419" lon="4.51295">
        <ele>193.7</ele>
      </trkpt>
      <trkpt lat="50.28375" lon="4.51245">
        <ele>189.2</ele>
        <time>2022-03-17T13:28:33Z</time>
      </trkpt>
      <trkpt lat="50.28269" lon="4.51158">
        <ele>187.2</ele>
        <time>2022-03-17T13:28:51Z</time>
      </trkpt>
      <trkpt lat="50.28207" lon="4.5111">
        <ele>190.2</ele>
        <time>2022-03-17T13:29:02Z</time>
      </trkpt>
      <trkpt lat="50.28157" lon="4.51053">
        <ele>184.8</ele>
        <time>2022-03-17T13:29:12Z</time>
      </trkpt>
      <trkpt lat="50.28095" lon="4.50969">
        <ele>189.1</ele>
        <time>2022-03-17T13:29:29Z</time>
      </trkpt>
      <trkpt lat="50.28052" lon="4.50947">
        <ele>183</ele>
        <time>2022-03-17T13:29:39Z</time>
      </trkpt>
      <trkpt lat="50.27986" lon="4.50902">
        <ele>182.4</ele>
        <time>2022-03-17T13:29:52Z</time>
      </trkpt>
      <trkpt lat="50.27946" lon="4.50865">
        <ele>182.2</ele>
        <time>2022-03-17T13:30:00Z</time>
      </trkpt>
      <trkpt lat="50.27933" lon="4.50824">
        <ele>182</ele>
        <time>2022-03-17T13:30:05Z</time>
      </trkpt>
      <trkpt lat="50.27915" lon="4.50739">
        <ele>185.8</ele>
      </trkpt>
      <trkpt lat="50.27885" lon="4.50659">
        <ele>181.8</ele>
        <time>2022-03-17T13:30:26Z</time>
      </trkpt>
      <trkpt lat="50.27811" lon="4.50563">
        <ele>182.6</ele>
        <time>2022-03-17T13:30:46Z</time>
      </trkpt>
      <trkpt lat="50.27745" lon="4.50478">
        <ele>183.6</ele>
        <time>2022-03-17T13:31:04Z</time>
      </trkpt>
      <trkpt lat="50.27734" lon="4.50435">
        <ele>184</ele>
        <time>2022-03-17T13:31:10Z</time>
      </trkpt>
      <trkpt lat="50.27727" lon="4.50315">
        <ele>184.8</ele>
        <time>2022-03-17T13:31:24Z</time>
      </trkpt>
      <trkpt lat="50.27723" lon="4.50218">
        <ele>185.6</ele>
        <time>2022-03-17T13:31:37Z</time>
      </trkpt>
      <trkpt lat="50.27722" lon="4.50193">
        <ele>186.2</ele>
        <time>2022-03-17T13:31:51Z</time>
      </trkpt>
      <trkpt lat="50.27742" lon="4.50169">
        <ele>186.4</ele>
        <time>2022-03-17T13:32:03Z</time>
      </trkpt>
      <trkpt lat="50.27735" lon="4.50161">
        <ele>186.4</ele>
        <time>2022-03-17T13:32:09Z</time>
      </trkpt>
      <trkpt lat="50.27722" lon="4.50164">
        <ele>186.2</ele>
        <time>2022-03-17T13:32:16Z</time>
      </trkpt>
      <trkpt lat="50.27683" lon="4.50127">
        <ele>191.6</ele>
        <time>2022-03-17T13:32:28Z</time>
      </trkpt>
      <trkpt lat="50.2768" lon="4.50111">
        <ele>191.5</ele>
      </trkpt>
      <trkpt lat="50.27686" lon="4.50083">
        <ele>186.4</ele>
        <time>2022-03-17T13:32:35Z</time>
      </trkpt>
      <trkpt lat="50.27671" lon="4.50049">
        <ele>186.6</ele>
        <time>2022-03-17T13:32:41Z</time>
      </trkpt>
      <trkpt lat="50.27647" lon="4.50003">
        <ele>190.8</ele>
      </trkpt>
      <trkpt lat="50.2763" lon="4.49949">
        <ele>191.7</ele>
        <time>2022-03-17T13:32:58Z</time>
      </trkpt>
      <trkpt lat="50.2765" lon="4.49914">
        <ele>187.2</ele>
        <time>2022-03-17T13:33:08Z</time>
      </trkpt>
      <trkpt lat="50.27709" lon="4.49794">
        <ele>187</ele>
        <time>2022-03-17T13:33:26Z</time>
      </trkpt>
      <trkpt lat="50.27717" lon="4.49739">
        <ele>186.8</ele>
        <time>2022-03-17T13:33:33Z</time>
      </trkpt>
      <trkpt lat="50.27717" lon="4.49669">
        <ele>186.4</ele>
        <time>2022-03-17T13:33:43Z</time>
      </trkpt>
      <trkpt lat="50.27666" lon="4.49595">
        <ele>187</ele>
        <time>2022-03-17T13:33:58Z</time>
      </trkpt>
      <trkpt lat="50.27645" lon="4.49546">
        <ele>193</ele>
      </trkpt>
      <trkpt lat="50.27634" lon="4.49489">
        <ele>187.2</ele>
        <time>2022-03-17T13:34:17Z</time>
      </trkpt>
      <trkpt lat="50.27643" lon="4.49461">
        <ele>187.2</ele>
        <time>2022-03-17T13:34:22Z</time>
      </trkpt>
      <trkpt lat="50.27666" lon="4.49386">
        <ele>187.8</ele>
        <time>2022-03-17T13:34:38Z</time>
      </trkpt>
      <trkpt lat="50.27661" lon="4.49355">
        <ele>193.2</ele>
      </trkpt>
      <trkpt lat="50.27644" lon="4.49322">
        <ele>188</ele>
        <time>2022-03-17T13:34:53Z</time>
      </trkpt>
      <trkpt lat="50.27613" lon="4.49276">
        <ele>188.6</ele>
        <time>2022-03-17T13:35:02Z</time>
      </trkpt>
      <trkpt lat="50.27581" lon="4.49226">
        <ele>189</ele>
        <time>2022-03-17T13:35:12Z</time>
      </trkpt>
      <trkpt lat="50.27535" lon="4.49115">
        <ele>190.4</ele>
        <time>2022-03-17T13:35:31Z</time>
      </trkpt>
      <trkpt lat="50.27477" lon="4.48976">
        <ele>193.4</ele>
        <time>2022-03-17T13:35:56Z</time>
      </trkpt>
      <trkpt lat="50.27468" lon="4.48936">
        <ele>208.3</ele>
        <time>2022-03-17T13:36:03Z</time>
      </trkpt>
      <trkpt lat="50.2744" lon="4.48937">
        <ele>210.3</ele>
      </trkpt>
      <trkpt lat="50.27416" lon="4.48966">
        <ele>196.8</ele>
        <time>2022-03-17T13:36:16Z</time>
      </trkpt>
      <trkpt lat="50.27376" lon="4.49027">
        <ele>198.6</ele>
        <time>2022-03-17T13:36:28Z</time>
      </trkpt>
      <trkpt lat="50.27371" lon="4.49025">
        <ele>211.7</ele>
      </trkpt>
      <trkpt lat="50.2736" lon="4.49008">
        <ele>199.4</ele>
        <time>2022-03-17T13:36:33Z</time>
      </trkpt>
      <trkpt lat="50.27304" lon="4.48893">
        <ele>214.9</ele>
      </trkpt>
      <trkpt lat="50.27285" lon="4.48878">
        <ele>203</ele>
        <time>2022-03-17T13:37:01Z</time>
      </trkpt>
      <trkpt lat="50.2725" lon="4.48847">
        <ele>218</ele>
        <time>2022-03-17T13:37:41Z</time>
      </trkpt>
      <trkpt lat="50.27219" lon="4.48793">
        <ele>210</ele>
        <time>2022-03-17T13:37:56Z</time>
      </trkpt>
      <trkpt lat="50.27198" lon="4.48764">
        <ele>211.8</ele>
        <time>2022-03-17T13:38:05Z</time>
      </trkpt>
      <trkpt lat="50.27179" lon="4.48744">
        <ele>212.8</ele>
        <time>2022-03-17T13:38:12Z</time>
      </trkpt>
      <trkpt lat="50.27155" lon="4.48725">
        <ele>214.2</ele>
        <time>2022-03-17T13:38:20Z</time>
      </trkpt>
      <trkpt lat="50.27139" lon="4.48714">
        <ele>236.2</ele>
      </trkpt>
      <trkpt lat="50.27127" lon="4.48715">
        <ele>216.6</ele>
        <time>2022-03-17T13:38:30Z</time>
      </trkpt>
      <trkpt lat="50.27095" lon="4.48723">
        <ele>219</ele>
        <time>2022-03-17T13:38:40Z</time>
      </trkpt>
      <trkpt lat="50.27048" lon="4.48731">
        <ele>246.3</ele>
        <time>2022-03-17T13:38:54Z</time>
      </trkpt>
      <trkpt lat="50.27024" lon="4.48734">
        <ele>224.8</ele>
        <time>2022-03-17T13:39:01Z</time>
      </trkpt>
      <trkpt lat="50.27022" lon="4.4873">
        <ele>235.6</ele>
        <time>2022-03-17T13:40:02Z</time>
      </trkpt>
      <trkpt lat="50.27015" lon="4.48703">
        <ele>236.4</ele>
        <time>2022-03-17T13:40:09Z</time>
      </trkpt>
      <trkpt lat="50.27011" lon="4.48658">
        <ele>237.2</ele>
        <time>2022-03-17T13:40:20Z</time>
      </trkpt>
      <trkpt lat="50.27004" lon="4.48607">
        <ele>237.6</ele>
        <time>2022-03-17T13:40:32Z</time>
      </trkpt>
      <trkpt lat="50.26995" lon="4.48526">
        <ele>240</ele>
        <time>2022-03-17T13:40:49Z</time>
      </trkpt>
      <trkpt lat="50.26989" lon="4.48458">
        <ele>241.2</ele>
        <time>2022-03-17T13:41:03Z</time>
      </trkpt>
      <trkpt lat="50.26985" lon="4.48401">
        <ele>243.4</ele>
        <time>2022-03-17T13:41:19Z</time>
      </trkpt>
      <trkpt lat="50.26984" lon="4.48395">
        <ele>249.2</ele>
        <time>2022-03-17T13:42:34Z</time>
      </trkpt>
      <trkpt lat="50.26978" lon="4.48316">
        <ele>250.8</ele>
        <time>2022-03-17T13:42:49Z</time>
      </trkpt>
      <trkpt lat="50.26957" lon="4.48146">
        <ele>253</ele>
        <time>2022-03-17T13:43:15Z</time>
      </trkpt>
      <trkpt lat="50.26941" lon="4.47997">
        <ele>254.4</ele>
        <time>2022-03-17T13:43:37Z</time>
      </trkpt>
      <trkpt lat="50.26931" lon="4.47913">
        <ele>255.2</ele>
        <time>2022-03-17T13:43:49Z</time>
      </trkpt>
      <trkpt lat="50.26914" lon="4.47765">
        <ele>256</ele>
        <time>2022-03-17T13:44:10Z</time>
      </trkpt>
      <trkpt lat="50.26888" lon="4.47684">
        <ele>256.4</ele>
        <time>2022-03-17T13:44:26Z</time>
      </trkpt>
      <trkpt lat="50.26858" lon="4.476">
        <ele>256</ele>
        <time>2022-03-17T13:44:41Z</time>
      </trkpt>
      <trkpt lat="50.26842" lon="4.47553">
        <ele>255.4</ele>
        <time>2022-03-17T13:44:50Z</time>
      </trkpt>
      <trkpt lat="50.26829" lon="4.47522">
        <ele>255.4</ele>
        <time>2022-03-17T13:45:00Z</time>
      </trkpt>
      <trkpt lat="50.26826" lon="4.47521">
        <ele>255</ele>
        <time>2022-03-17T13:46:41Z</time>
      </trkpt>
      <trkpt lat="50.26818" lon="4.47527">
        <ele>255.2</ele>
        <time>2022-03-17T13:46:51Z</time>
      </trkpt>
      <trkpt lat="50.26781" lon="4.47545">
        <ele>262.8</ele>
        <time>2022-03-17T13:47:02Z</time>
      </trkpt>
      <trkpt lat="50.26734" lon="4.47572">
        <ele>257.2</ele>
        <time>2022-03-17T13:47:18Z</time>
      </trkpt>
      <trkpt lat="50.26719" lon="4.47541">
        <ele>258</ele>
        <time>2022-03-17T13:47:28Z</time>
      </trkpt>
      <trkpt lat="50.26692" lon="4.47467">
        <ele>258.8</ele>
        <time>2022-03-17T13:47:45Z</time>
      </trkpt>
      <trkpt lat="50.26674" lon="4.47422">
        <ele>263.7</ele>
      </trkpt>
      <trkpt lat="50.26653" lon="4.47385">
        <ele>259.6</ele>
        <time>2022-03-17T13:48:03Z</time>
      </trkpt>
      <trkpt lat="50.26617" lon="4.47345">
        <ele>260</ele>
        <time>2022-03-17T13:48:18Z</time>
      </trkpt>
      <trkpt lat="50.26568" lon="4.47298">
        <ele>260.4</ele>
        <time>2022-03-17T13:48:36Z</time>
      </trkpt>
      <trkpt lat="50.26519" lon="4.47236">
        <ele>260</ele>
        <time>2022-03-17T13:48:52Z</time>
      </trkpt>
      <trkpt lat="50.26492" lon="4.47188">
        <ele>259.2</ele>
        <time>2022-03-17T13:49:02Z</time>
      </trkpt>
      <trkpt lat="50.26508" lon="4.47038">
        <ele>255.8</ele>
        <time>2022-03-17T13:49:19Z</time>
      </trkpt>
      <trkpt lat="50.26475" lon="4.47017">
        <ele>257.2</ele>
        <time>2022-03-17T13:49:27Z</time>
      </trkpt>
      <trkpt lat="50.2641" lon="4.4696">
        <ele>256.4</ele>
        <time>2022-03-17T13:49:45Z</time>
      </trkpt>
      <trkpt lat="50.26367" lon="4.46891">
        <ele>255.6</ele>
        <time>2022-03-17T13:49:56Z</time>
      </trkpt>
      <trkpt lat="50.2633" lon="4.46831">
        <ele>254.4</ele>
        <time>2022-03-17T13:50:07Z</time>
      </trkpt>
      <trkpt lat="50.26252" lon="4.46719">
        <ele>253.2</ele>
        <time>2022-03-17T13:50:25Z</time>
      </trkpt>
      <trkpt lat="50.26205" lon="4.46636">
        <ele>248.9</ele>
      </trkpt>
      <trkpt lat="50.26165" lon="4.46545">
        <ele>251</ele>
        <time>2022-03-17T13:50:47Z</time>
      </trkpt>
      <trkpt lat="50.26147" lon="4.46496">
        <ele>247.6</ele>
      </trkpt>
      <trkpt lat="50.26141" lon="4.46447">
        <ele>247</ele>
        <time>2022-03-17T13:51:00Z</time>
      </trkpt>
      <trkpt lat="50.2613" lon="4.46262">
        <ele>247.6</ele>
        <time>2022-03-17T13:51:19Z</time>
      </trkpt>
      <trkpt lat="50.26115" lon="4.46115">
        <ele>245.8</ele>
        <time>2022-03-17T13:51:36Z</time>
      </trkpt>
      <trkpt lat="50.261" lon="4.46061">
        <ele>243</ele>
      </trkpt>
      <trkpt lat="50.26094" lon="4.45996">
        <ele>244.8</ele>
        <time>2022-03-17T13:51:51Z</time>
      </trkpt>
      <trkpt lat="50.26089" lon="4.45895">
        <ele>244</ele>
        <time>2022-03-17T13:52:03Z</time>
      </trkpt>
      <trkpt lat="50.2611" lon="4.45716">
        <ele>241.8</ele>
        <time>2022-03-17T13:52:25Z</time>
      </trkpt>
      <trkpt lat="50.2612" lon="4.45654">
        <ele>238.4</ele>
      </trkpt>
      <trkpt lat="50.26133" lon="4.456">
        <ele>237.1</ele>
        <time>2022-03-17T13:52:37Z</time>
      </trkpt>
      <trkpt lat="50.26131" lon="4.45503">
        <ele>239.2</ele>
        <time>2022-03-17T13:52:49Z</time>
      </trkpt>
      <trkpt lat="50.26128" lon="4.45408">
        <ele>235.6</ele>
      </trkpt>
      <trkpt lat="50.26145" lon="4.45368">
        <ele>237.8</ele>
        <time>2022-03-17T13:53:06Z</time>
      </trkpt>
      <trkpt lat="50.26229" lon="4.45169">
        <ele>237.2</ele>
        <time>2022-03-17T13:53:38Z</time>
      </trkpt>
      <trkpt lat="50.26266" lon="4.45102">
        <ele>236.8</ele>
        <time>2022-03-17T13:53:50Z</time>
      </trkpt>
      <trkpt lat="50.26348" lon="4.44953">
        <ele>233.6</ele>
        <time>2022-03-17T13:54:11Z</time>
      </trkpt>
      <trkpt lat="50.26411" lon="4.44858">
        <ele>229.8</ele>
        <time>2022-03-17T13:54:27Z</time>
      </trkpt>
      <trkpt lat="50.2647" lon="4.44796">
        <ele>223.8</ele>
        <time>2022-03-17T13:54:44Z</time>
      </trkpt>
      <trkpt lat="50.26487" lon="4.44768">
        <ele>221</ele>
        <time>2022-03-17T13:54:50Z</time>
      </trkpt>
      <trkpt lat="50.26531" lon="4.44707">
        <ele>216</ele>
        <time>2022-03-17T13:55:02Z</time>
      </trkpt>
      <trkpt lat="50.26567" lon="4.44676">
        <ele>211.2</ele>
        <time>2022-03-17T13:55:15Z</time>
      </trkpt>
      <trkpt lat="50.26587" lon="4.44657">
        <ele>208</ele>
        <time>2022-03-17T13:55:23Z</time>
      </trkpt>
      <trkpt lat="50.2662" lon="4.44639">
        <ele>203.4</ele>
        <time>2022-03-17T13:55:37Z</time>
      </trkpt>
      <trkpt lat="50.26661" lon="4.44603">
        <ele>198.8</ele>
        <time>2022-03-17T13:55:55Z</time>
      </trkpt>
      <trkpt lat="50.26699" lon="4.44574">
        <ele>195.4</ele>
        <time>2022-03-17T13:56:11Z</time>
      </trkpt>
      <trkpt lat="50.2677" lon="4.44501">
        <ele>190</ele>
        <time>2022-03-17T13:56:34Z</time>
      </trkpt>
      <trkpt lat="50.26791" lon="4.44476">
        <ele>181.5</ele>
        <time>2022-03-17T13:56:41Z</time>
      </trkpt>
      <trkpt lat="50.26796" lon="4.44461">
        <ele>181.1</ele>
      </trkpt>
      <trkpt lat="50.26794" lon="4.44442">
        <ele>180.6</ele>
      </trkpt>
      <trkpt lat="50.26812" lon="4.44425">
        <ele>181</ele>
        <time>2022-03-17T13:57:40Z</time>
      </trkpt>
      <trkpt lat="50.26837" lon="4.44349">
        <ele>182.8</ele>
        <time>2022-03-17T13:57:56Z</time>
      </trkpt>
      <trkpt lat="50.26852" lon="4.44286">
        <ele>182.6</ele>
        <time>2022-03-17T13:58:05Z</time>
      </trkpt>
      <trkpt lat="50.26842" lon="4.44224">
        <ele>182</ele>
        <time>2022-03-17T13:58:13Z</time>
      </trkpt>
      <trkpt lat="50.26822" lon="4.44089">
        <ele>180.8</ele>
        <time>2022-03-17T13:58:29Z</time>
      </trkpt>
      <trkpt lat="50.26824" lon="4.44051">
        <ele>180.4</ele>
        <time>2022-03-17T13:58:33Z</time>
      </trkpt>
      <trkpt lat="50.26848" lon="4.43897">
        <ele>176.6</ele>
        <time>2022-03-17T13:58:50Z</time>
      </trkpt>
      <trkpt lat="50.26876" lon="4.43856">
        <ele>176.4</ele>
      </trkpt>
      <trkpt lat="50.26902" lon="4.43808">
        <ele>177.8</ele>
        <time>2022-03-17T13:59:05Z</time>
      </trkpt>
      <trkpt lat="50.26936" lon="4.43709">
        <ele>176.8</ele>
        <time>2022-03-17T13:59:20Z</time>
      </trkpt>
      <trkpt lat="50.2693" lon="4.43651">
        <ele>176</ele>
        <time>2022-03-17T13:59:28Z</time>
      </trkpt>
      <trkpt lat="50.2694" lon="4.43546">
        <ele>174.6</ele>
        <time>2022-03-17T13:59:46Z</time>
      </trkpt>
      <trkpt lat="50.26938" lon="4.43503">
        <ele>171.8</ele>
      </trkpt>
      <trkpt lat="50.26926" lon="4.43447">
        <ele>173.4</ele>
        <time>2022-03-17T14:00:03Z</time>
      </trkpt>
      <trkpt lat="50.26924" lon="4.43399">
        <ele>169.2</ele>
      </trkpt>
      <trkpt lat="50.26931" lon="4.43337">
        <ele>171.2</ele>
        <time>2022-03-17T14:00:21Z</time>
      </trkpt>
      <trkpt lat="50.26933" lon="4.43299">
        <ele>161.3</ele>
      </trkpt>
      <trkpt lat="50.26943" lon="4.43271">
        <ele>168</ele>
        <time>2022-03-17T14:00:33Z</time>
      </trkpt>
      <trkpt lat="50.26997" lon="4.43309">
        <ele>159.5</ele>
        <time>2022-03-17T14:00:47Z</time>
      </trkpt>
      <trkpt lat="50.27047" lon="4.43319">
        <ele>164.2</ele>
        <time>2022-03-17T14:01:00Z</time>
      </trkpt>
      <trkpt lat="50.27079" lon="4.43323">
        <ele>158.6</ele>
      </trkpt>
      <trkpt lat="50.27078" lon="4.43302">
        <ele>158</ele>
      </trkpt>
      <trkpt lat="50.27073" lon="4.43294">
        <ele>163.4</ele>
        <time>2022-03-17T14:01:12Z</time>
      </trkpt>
      <trkpt lat="50.27049" lon="4.43291">
        <ele>162.8</ele>
        <time>2022-03-17T14:01:22Z</time>
      </trkpt>
      <trkpt lat="50.27045" lon="4.43281">
        <ele>162.6</ele>
        <time>2022-03-17T14:01:26Z</time>
      </trkpt>
      <trkpt lat="50.2705" lon="4.43247">
        <ele>161.2</ele>
        <time>2022-03-17T14:01:40Z</time>
      </trkpt>
      <trkpt lat="50.27058" lon="4.43216">
        <ele>158.3</ele>
      </trkpt>
      <trkpt lat="50.27063" lon="4.43162">
        <ele>160</ele>
        <time>2022-03-17T14:02:01Z</time>
      </trkpt>
      <trkpt lat="50.27068" lon="4.4306">
        <ele>157.8</ele>
        <time>2022-03-17T14:02:18Z</time>
      </trkpt>
      <trkpt lat="50.27058" lon="4.43023">
        <ele>156.4</ele>
        <time>2022-03-17T14:02:23Z</time>
      </trkpt>
      <trkpt lat="50.2703" lon="4.42926">
        <ele>164.1</ele>
        <time>2022-03-17T14:02:38Z</time>
      </trkpt>
      <trkpt lat="50.27028" lon="4.42877">
        <ele>154.8</ele>
        <time>2022-03-17T14:02:45Z</time>
      </trkpt>
      <trkpt lat="50.27026" lon="4.42836">
        <ele>166.4</ele>
        <time>2022-03-17T14:02:52Z</time>
      </trkpt>
      <trkpt lat="50.27008" lon="4.42728">
        <ele>156.6</ele>
        <time>2022-03-17T14:03:05Z</time>
      </trkpt>
      <trkpt lat="50.26985" lon="4.42697">
        <ele>157.4</ele>
        <time>2022-03-17T14:03:12Z</time>
      </trkpt>
      <trkpt lat="50.26983" lon="4.42687">
        <ele>169.7</ele>
      </trkpt>
      <trkpt lat="50.26982" lon="4.42668">
        <ele>170.2</ele>
      </trkpt>
      <trkpt lat="50.26991" lon="4.42634">
        <ele>158.8</ele>
        <time>2022-03-17T14:03:22Z</time>
      </trkpt>
      <trkpt lat="50.26996" lon="4.42583">
        <ele>159.8</ele>
        <time>2022-03-17T14:03:30Z</time>
      </trkpt>
      <trkpt lat="50.2699" lon="4.42444">
        <ele>161.8</ele>
        <time>2022-03-17T14:03:50Z</time>
      </trkpt>
      <trkpt lat="50.26951" lon="4.42266">
        <ele>165.8</ele>
        <time>2022-03-17T14:04:18Z</time>
      </trkpt>
      <trkpt lat="50.26931" lon="4.42198">
        <ele>180.4</ele>
      </trkpt>
      <trkpt lat="50.26923" lon="4.42118">
        <ele>169.2</ele>
        <time>2022-03-17T14:04:41Z</time>
      </trkpt>
      <trkpt lat="50.2691" lon="4.41954">
        <ele>171</ele>
        <time>2022-03-17T14:05:01Z</time>
      </trkpt>
      <trkpt lat="50.26898" lon="4.41816">
        <ele>172.4</ele>
        <time>2022-03-17T14:05:20Z</time>
      </trkpt>
      <trkpt lat="50.26897" lon="4.41755">
        <ele>172.8</ele>
        <time>2022-03-17T14:05:28Z</time>
      </trkpt>
      <trkpt lat="50.26929" lon="4.41617">
        <ele>174.6</ele>
        <time>2022-03-17T14:05:48Z</time>
      </trkpt>
      <trkpt lat="50.26949" lon="4.41516">
        <ele>186.2</ele>
      </trkpt>
      <trkpt lat="50.26957" lon="4.41433">
        <ele>188.9</ele>
        <time>2022-03-17T14:06:13Z</time>
      </trkpt>
      <trkpt lat="50.26957" lon="4.41367">
        <ele>190.5</ele>
      </trkpt>
      <trkpt lat="50.2694" lon="4.41178">
        <ele>182.4</ele>
        <time>2022-03-17T14:06:45Z</time>
      </trkpt>
      <trkpt lat="50.26932" lon="4.41073">
        <ele>193.6</ele>
      </trkpt>
      <trkpt lat="50.26932" lon="4.40965">
        <ele>191.2</ele>
        <time>2022-03-17T14:07:09Z</time>
      </trkpt>
      <trkpt lat="50.26931" lon="4.40895">
        <ele>187.8</ele>
      </trkpt>
      <trkpt lat="50.26917" lon="4.40795">
        <ele>184.4</ele>
        <time>2022-03-17T14:07:23Z</time>
      </trkpt>
      <trkpt lat="50.269" lon="4.40703">
        <ele>181.7</ele>
        <time>2022-03-17T14:07:32Z</time>
      </trkpt>
      <trkpt lat="50.26907" lon="4.4068">
        <ele>181.2</ele>
      </trkpt>
      <trkpt lat="50.2697" lon="4.40579">
        <ele>182.6</ele>
        <time>2022-03-17T14:07:47Z</time>
      </trkpt>
      <trkpt lat="50.26989" lon="4.40527">
        <ele>180.5</ele>
        <time>2022-03-17T14:07:56Z</time>
      </trkpt>
      <trkpt lat="50.2702" lon="4.40549">
        <ele>178.7</ele>
      </trkpt>
      <trkpt lat="50.27051" lon="4.40559">
        <ele>180.6</ele>
        <time>2022-03-17T14:08:08Z</time>
      </trkpt>
      <trkpt lat="50.27175" lon="4.40574">
        <ele>177.8</ele>
        <time>2022-03-17T14:08:28Z</time>
      </trkpt>
      <trkpt lat="50.27325" lon="4.4061">
        <ele>174.2</ele>
        <time>2022-03-17T14:08:49Z</time>
      </trkpt>
      <trkpt lat="50.27455" lon="4.40644">
        <ele>169.6</ele>
        <time>2022-03-17T14:09:05Z</time>
      </trkpt>
      <trkpt lat="50.27592" lon="4.40661">
        <ele>164</ele>
        <time>2022-03-17T14:09:25Z</time>
      </trkpt>
      <trkpt lat="50.27622" lon="4.40667">
        <ele>153.4</ele>
      </trkpt>
      <trkpt lat="50.27639" lon="4.40678">
        <ele>153.2</ele>
      </trkpt>
      <trkpt lat="50.27644" lon="4.40687">
        <ele>160.8</ele>
        <time>2022-03-17T14:09:37Z</time>
      </trkpt>
      <trkpt lat="50.27676" lon="4.40726">
        <ele>154.2</ele>
        <time>2022-03-17T14:10:20Z</time>
      </trkpt>
      <trkpt lat="50.27701" lon="4.40724">
        <ele>152.2</ele>
        <time>2022-03-17T14:10:36Z</time>
      </trkpt>
      <trkpt lat="50.2772" lon="4.4073">
        <ele>152.6</ele>
        <time>2022-03-17T14:10:46Z</time>
      </trkpt>
      <trkpt lat="50.27733" lon="4.40747">
        <ele>153.5</ele>
      </trkpt>
      <trkpt lat="50.27749" lon="4.40758">
        <ele>154</ele>
        <time>2022-03-17T14:10:58Z</time>
      </trkpt>
      <trkpt lat="50.27761" lon="4.40765">
        <ele>154.7</ele>
      </trkpt>
      <trkpt lat="50.2777" lon="4.40774">
        <ele>154</ele>
      </trkpt>
      <trkpt lat="50.27785" lon="4.40802">
        <ele>144.6</ele>
        <time>2022-03-17T14:11:09Z</time>
      </trkpt>
      <trkpt lat="50.27821" lon="4.40882">
        <ele>142.2</ele>
        <time>2022-03-17T14:11:20Z</time>
      </trkpt>
      <trkpt lat="50.27838" lon="4.40913">
        <ele>152.9</ele>
      </trkpt>
      <trkpt lat="50.27868" lon="4.40934">
        <ele>153.2</ele>
      </trkpt>
      <trkpt lat="50.27887" lon="4.40948">
        <ele>152.8</ele>
      </trkpt>
      <trkpt lat="50.27906" lon="4.40957">
        <ele>154.7</ele>
        <time>2022-03-17T14:11:39Z</time>
      </trkpt>
      <trkpt lat="50.27938" lon="4.40966">
        <ele>157</ele>
      </trkpt>
      <trkpt lat="50.27971" lon="4.40963">
        <ele>158.6</ele>
      </trkpt>
      <trkpt lat="50.28002" lon="4.40961">
        <ele>144.6</ele>
        <time>2022-03-17T14:11:59Z</time>
      </trkpt>
      <trkpt lat="50.28081" lon="4.40956">
        <ele>154.3</ele>
        <time>2022-03-17T14:12:13Z</time>
      </trkpt>
      <trkpt lat="50.28124" lon="4.40938">
        <ele>146.2</ele>
        <time>2022-03-17T14:12:20Z</time>
      </trkpt>
      <trkpt lat="50.28236" lon="4.40848">
        <ele>147</ele>
        <time>2022-03-17T14:12:44Z</time>
      </trkpt>
      <trkpt lat="50.28268" lon="4.40794">
        <ele>147.6</ele>
        <time>2022-03-17T14:13:02Z</time>
      </trkpt>
      <trkpt lat="50.283" lon="4.40741">
        <ele>148.2</ele>
        <time>2022-03-17T14:13:20Z</time>
      </trkpt>
      <trkpt lat="50.28342" lon="4.40672">
        <ele>148.6</ele>
        <time>2022-03-17T14:13:41Z</time>
      </trkpt>
      <trkpt lat="50.28368" lon="4.40601">
        <ele>148.8</ele>
        <time>2022-03-17T14:13:57Z</time>
      </trkpt>
      <trkpt lat="50.28378" lon="4.40574">
        <ele>152.8</ele>
      </trkpt>
      <trkpt lat="50.28391" lon="4.4056">
        <ele>151.8</ele>
      </trkpt>
      <trkpt lat="50.28393" lon="4.40542">
        <ele>149</ele>
        <time>2022-03-17T14:14:10Z</time>
      </trkpt>
      <trkpt lat="50.28388" lon="4.40505">
        <ele>155.1</ele>
      </trkpt>
      <trkpt lat="50.2841" lon="4.40472">
        <ele>150.2</ele>
        <time>2022-03-17T14:14:25Z</time>
      </trkpt>
      <trkpt lat="50.28468" lon="4.40422">
        <ele>151.4</ele>
        <time>2022-03-17T14:14:43Z</time>
      </trkpt>
      <trkpt lat="50.2848" lon="4.40422">
        <ele>153.8</ele>
        <time>2022-03-17T14:15:36Z</time>
      </trkpt>
      <trkpt lat="50.28481" lon="4.40443">
        <ele>154</ele>
        <time>2022-03-17T14:15:41Z</time>
      </trkpt>
      <trkpt lat="50.28512" lon="4.4051">
        <ele>153.4</ele>
        <time>2022-03-17T14:15:52Z</time>
      </trkpt>
      <trkpt lat="50.28537" lon="4.40555">
        <ele>153.2</ele>
        <time>2022-03-17T14:16:03Z</time>
      </trkpt>
      <trkpt lat="50.28545" lon="4.40571">
        <ele>152</ele>
      </trkpt>
      <trkpt lat="50.28558" lon="4.40555">
        <ele>152.4</ele>
        <time>2022-03-17T14:16:12Z</time>
      </trkpt>
      <trkpt lat="50.28582" lon="4.40524">
        <ele>152</ele>
        <time>2022-03-17T14:16:19Z</time>
      </trkpt>
      <trkpt lat="50.28642" lon="4.40445">
        <ele>151</ele>
        <time>2022-03-17T14:16:36Z</time>
      </trkpt>
      <trkpt lat="50.28672" lon="4.40402">
        <ele>150.2</ele>
        <time>2022-03-17T14:16:45Z</time>
      </trkpt>
      <trkpt lat="50.28702" lon="4.40358">
        <ele>152</ele>
      </trkpt>
      <trkpt lat="50.2872" lon="4.40317">
        <ele>149.2</ele>
        <time>2022-03-17T14:17:02Z</time>
      </trkpt>
      <trkpt lat="50.28758" lon="4.40277">
        <ele>148.6</ele>
        <time>2022-03-17T14:17:13Z</time>
      </trkpt>
      <trkpt lat="50.28828" lon="4.40185">
        <ele>148</ele>
        <time>2022-03-17T14:17:32Z</time>
      </trkpt>
      <trkpt lat="50.28847" lon="4.40136">
        <ele>150.9</ele>
      </trkpt>
      <trkpt lat="50.28867" lon="4.40154">
        <ele>151.4</ele>
        <time>2022-03-17T14:17:52Z</time>
      </trkpt>
      <trkpt lat="50.28884" lon="4.40115">
        <ele>147.8</ele>
        <time>2022-03-17T14:17:56Z</time>
      </trkpt>
      <trkpt lat="50.28916" lon="4.40026">
        <ele>151</ele>
      </trkpt>
      <trkpt lat="50.28934" lon="4.39994">
        <ele>147.8</ele>
        <time>2022-03-17T14:18:16Z</time>
      </trkpt>
      <trkpt lat="50.28951" lon="4.3997">
        <ele>151.9</ele>
      </trkpt>
      <trkpt lat="50.28967" lon="4.39937">
        <ele>148.4</ele>
        <time>2022-03-17T14:18:29Z</time>
      </trkpt>
      <trkpt lat="50.29007" lon="4.39837">
        <ele>150</ele>
        <time>2022-03-17T14:18:48Z</time>
      </trkpt>
      <trkpt lat="50.29032" lon="4.39755">
        <ele>156.8</ele>
        <time>2022-03-17T14:19:02Z</time>
      </trkpt>
      <trkpt lat="50.29045" lon="4.39741">
        <ele>158.8</ele>
      </trkpt>
      <trkpt lat="50.29059" lon="4.39735">
        <ele>161.7</ele>
      </trkpt>
      <trkpt lat="50.29097" lon="4.39743">
        <ele>165.5</ele>
        <time>2022-03-17T14:19:21Z</time>
      </trkpt>
      <trkpt lat="50.29152" lon="4.39758">
        <ele>158.6</ele>
        <time>2022-03-17T14:19:41Z</time>
      </trkpt>
      <trkpt lat="50.29215" lon="4.39757">
        <ele>161.6</ele>
        <time>2022-03-17T14:20:04Z</time>
      </trkpt>
      <trkpt lat="50.2927" lon="4.39773">
        <ele>164.4</ele>
        <time>2022-03-17T14:20:23Z</time>
      </trkpt>
      <trkpt lat="50.29328" lon="4.39791">
        <ele>168.4</ele>
        <time>2022-03-17T14:20:46Z</time>
      </trkpt>
      <trkpt lat="50.29383" lon="4.39812">
        <ele>172</ele>
        <time>2022-03-17T14:21:07Z</time>
      </trkpt>
      <trkpt lat="50.29456" lon="4.39833">
        <ele>175.4</ele>
        <time>2022-03-17T14:21:31Z</time>
      </trkpt>
      <trkpt lat="50.29506" lon="4.39849">
        <ele>177.2</ele>
        <time>2022-03-17T14:21:47Z</time>
      </trkpt>
      <trkpt lat="50.29546" lon="4.3986">
        <ele>178.8</ele>
        <time>2022-03-17T14:22:03Z</time>
      </trkpt>
      <trkpt lat="50.29564" lon="4.39865">
        <ele>188.2</ele>
      </trkpt>
      <trkpt lat="50.29591" lon="4.39804">
        <ele>180.4</ele>
        <time>2022-03-17T14:22:33Z</time>
      </trkpt>
      <trkpt lat="50.29617" lon="4.39784">
        <ele>185.2</ele>
      </trkpt>
      <trkpt lat="50.29645" lon="4.39764">
        <ele>180.4</ele>
        <time>2022-03-17T14:22:43Z</time>
      </trkpt>
      <trkpt lat="50.29675" lon="4.3975">
        <ele>180.4</ele>
        <time>2022-03-17T14:22:50Z</time>
      </trkpt>
      <trkpt lat="50.29706" lon="4.39733">
        <ele>182.8</ele>
      </trkpt>
      <trkpt lat="50.29731" lon="4.39729">
        <ele>180.2</ele>
        <time>2022-03-17T14:23:03Z</time>
      </trkpt>
      <trkpt lat="50.29742" lon="4.39725">
        <ele>183.7</ele>
      </trkpt>
      <trkpt lat="50.29754" lon="4.39732">
        <ele>180.2</ele>
        <time>2022-03-17T14:23:08Z</time>
      </trkpt>
      <trkpt lat="50.29776" lon="4.39754">
        <ele>185</ele>
      </trkpt>
      <trkpt lat="50.298" lon="4.39787">
        <ele>186.7</ele>
        <time>2022-03-17T14:23:22Z</time>
      </trkpt>
      <trkpt lat="50.29825" lon="4.39808">
        <ele>189.1</ele>
      </trkpt>
      <trkpt lat="50.29852" lon="4.39767">
        <ele>182</ele>
        <time>2022-03-17T14:23:39Z</time>
      </trkpt>
      <trkpt lat="50.29887" lon="4.3972">
        <ele>182.8</ele>
        <time>2022-03-17T14:23:50Z</time>
      </trkpt>
      <trkpt lat="50.29921" lon="4.39668">
        <ele>182.8</ele>
        <time>2022-03-17T14:23:59Z</time>
      </trkpt>
      <trkpt lat="50.29963" lon="4.39604">
        <ele>181.6</ele>
        <time>2022-03-17T14:24:10Z</time>
      </trkpt>
      <trkpt lat="50.29987" lon="4.39579">
        <ele>182.7</ele>
      </trkpt>
      <trkpt lat="50.30017" lon="4.39555">
        <ele>180.4</ele>
        <time>2022-03-17T14:24:20Z</time>
      </trkpt>
      <trkpt lat="50.30043" lon="4.39534">
        <ele>179.3</ele>
        <time>2022-03-17T14:24:24Z</time>
      </trkpt>
      <trkpt lat="50.30097" lon="4.39612">
        <ele>183.6</ele>
        <time>2022-03-17T14:24:39Z</time>
      </trkpt>
      <trkpt lat="50.3014" lon="4.3967">
        <ele>186.3</ele>
      </trkpt>
      <trkpt lat="50.30144" lon="4.39671">
        <ele>186.6</ele>
        <time>2022-03-17T14:24:52Z</time>
      </trkpt>
      <trkpt lat="50.30162" lon="4.3968">
        <ele>188.2</ele>
      </trkpt>
      <trkpt lat="50.30196" lon="4.39735">
        <ele>182</ele>
        <time>2022-03-17T14:25:08Z</time>
      </trkpt>
      <trkpt lat="50.30251" lon="4.39814">
        <ele>184.2</ele>
        <time>2022-03-17T14:25:26Z</time>
      </trkpt>
      <trkpt lat="50.30309" lon="4.39898">
        <ele>186</ele>
        <time>2022-03-17T14:25:48Z</time>
      </trkpt>
      <trkpt lat="50.3034" lon="4.39949">
        <ele>186.8</ele>
        <time>2022-03-17T14:26:07Z</time>
      </trkpt>
      <trkpt lat="50.30376" lon="4.40002">
        <ele>186.8</ele>
        <time>2022-03-17T14:26:22Z</time>
      </trkpt>
      <trkpt lat="50.304" lon="4.40041">
        <ele>186.4</ele>
        <time>2022-03-17T14:26:30Z</time>
      </trkpt>
      <trkpt lat="50.30441" lon="4.40089">
        <ele>184.4</ele>
        <time>2022-03-17T14:26:41Z</time>
      </trkpt>
      <trkpt lat="50.30502" lon="4.40159">
        <ele>187</ele>
        <time>2022-03-17T14:27:01Z</time>
      </trkpt>
      <trkpt lat="50.30549" lon="4.40211">
        <ele>189.2</ele>
        <time>2022-03-17T14:27:19Z</time>
      </trkpt>
      <trkpt lat="50.30578" lon="4.40241">
        <ele>194.7</ele>
        <time>2022-03-17T14:27:33Z</time>
      </trkpt>
      <trkpt lat="50.30589" lon="4.40252">
        <ele>193.5</ele>
      </trkpt>
      <trkpt lat="50.30598" lon="4.4025">
        <ele>191.2</ele>
        <time>2022-03-17T14:27:51Z</time>
      </trkpt>
      <trkpt lat="50.30621" lon="4.40231">
        <ele>191.2</ele>
        <time>2022-03-17T14:27:59Z</time>
      </trkpt>
      <trkpt lat="50.30684" lon="4.40172">
        <ele>189.8</ele>
        <time>2022-03-17T14:28:17Z</time>
      </trkpt>
      <trkpt lat="50.30744" lon="4.40118">
        <ele>185.8</ele>
        <time>2022-03-17T14:28:37Z</time>
      </trkpt>
      <trkpt lat="50.30775" lon="4.40084">
        <ele>182</ele>
        <time>2022-03-17T14:28:49Z</time>
      </trkpt>
      <trkpt lat="50.30806" lon="4.40043">
        <ele>178.2</ele>
        <time>2022-03-17T14:28:59Z</time>
      </trkpt>
      <trkpt lat="50.30852" lon="4.39985">
        <ele>169.8</ele>
        <time>2022-03-17T14:29:23Z</time>
      </trkpt>
      <trkpt lat="50.30867" lon="4.39968">
        <ele>155.2</ele>
      </trkpt>
      <trkpt lat="50.30887" lon="4.39957">
        <ele>167.4</ele>
        <time>2022-03-17T14:29:31Z</time>
      </trkpt>
      <trkpt lat="50.30909" lon="4.39953">
        <ele>166</ele>
        <time>2022-03-17T14:29:36Z</time>
      </trkpt>
      <trkpt lat="50.30915" lon="4.39932">
        <ele>149.7</ele>
      </trkpt>
      <trkpt lat="50.30917" lon="4.39911">
        <ele>162.2</ele>
        <time>2022-03-17T14:29:46Z</time>
      </trkpt>
      <trkpt lat="50.30925" lon="4.39901">
        <ele>160</ele>
        <time>2022-03-17T14:29:53Z</time>
      </trkpt>
      <trkpt lat="50.30951" lon="4.39926">
        <ele>156.8</ele>
        <time>2022-03-17T14:30:03Z</time>
      </trkpt>
      <trkpt lat="50.30972" lon="4.39923">
        <ele>146</ele>
      </trkpt>
      <trkpt lat="50.31017" lon="4.39941">
        <ele>151.6</ele>
        <time>2022-03-17T14:30:24Z</time>
      </trkpt>
      <trkpt lat="50.31036" lon="4.39949">
        <ele>145.8</ele>
      </trkpt>
      <trkpt lat="50.31052" lon="4.3996">
        <ele>146.1</ele>
      </trkpt>
      <trkpt lat="50.31071" lon="4.3996">
        <ele>146.4</ele>
        <time>2022-03-17T14:30:40Z</time>
      </trkpt>
      <trkpt lat="50.31113" lon="4.39958">
        <ele>147.8</ele>
        <time>2022-03-17T14:30:56Z</time>
      </trkpt>
      <trkpt lat="50.31158" lon="4.39951">
        <ele>148.8</ele>
        <time>2022-03-17T14:31:10Z</time>
      </trkpt>
      <trkpt lat="50.31175" lon="4.39955">
        <ele>154.8</ele>
      </trkpt>
      <trkpt lat="50.31188" lon="4.39969">
        <ele>156.8</ele>
        <time>2022-03-17T14:31:21Z</time>
      </trkpt>
      <trkpt lat="50.31199" lon="4.39983">
        <ele>157.4</ele>
      </trkpt>
      <trkpt lat="50.31195" lon="4.40002">
        <ele>159.1</ele>
      </trkpt>
      <trkpt lat="50.3118" lon="4.40014">
        <ele>160.7</ele>
        <time>2022-03-17T14:31:33Z</time>
      </trkpt>
      <trkpt lat="50.31146" lon="4.40033">
        <ele>164.3</ele>
      </trkpt>
      <trkpt lat="50.31104" lon="4.40046">
        <ele>167.5</ele>
        <time>2022-03-17T14:31:53Z</time>
      </trkpt>
      <trkpt lat="50.31112" lon="4.40062">
        <ele>155.4</ele>
        <time>2022-03-17T14:32:01Z</time>
      </trkpt>
      <trkpt lat="50.31147" lon="4.40097">
        <ele>158.6</ele>
        <time>2022-03-17T14:32:17Z</time>
      </trkpt>
      <trkpt lat="50.31172" lon="4.40127">
        <ele>161</ele>
        <time>2022-03-17T14:32:28Z</time>
      </trkpt>
      <trkpt lat="50.31204" lon="4.40169">
        <ele>164.4</ele>
        <time>2022-03-17T14:32:42Z</time>
      </trkpt>
      <trkpt lat="50.31231" lon="4.402">
        <ele>166.2</ele>
        <time>2022-03-17T14:32:53Z</time>
      </trkpt>
      <trkpt lat="50.31259" lon="4.40226">
        <ele>185.2</ele>
      </trkpt>
      <trkpt lat="50.31285" lon="4.40269">
        <ele>189.1</ele>
        <time>2022-03-17T14:33:15Z</time>
      </trkpt>
      <trkpt lat="50.31315" lon="4.40313">
        <ele>192</ele>
        <time>2022-03-17T14:33:27Z</time>
      </trkpt>
      <trkpt lat="50.3133" lon="4.40343">
        <ele>194.4</ele>
      </trkpt>
      <trkpt lat="50.31348" lon="4.4038">
        <ele>196.4</ele>
        <time>2022-03-17T14:33:43Z</time>
      </trkpt>
      <trkpt lat="50.31356" lon="4.40416">
        <ele>198.5</ele>
      </trkpt>
      <trkpt lat="50.31354" lon="4.40453">
        <ele>200.8</ele>
        <time>2022-03-17T14:33:57Z</time>
      </trkpt>
      <trkpt lat="50.31342" lon="4.40498">
        <ele>177.2</ele>
        <time>2022-03-17T14:34:08Z</time>
      </trkpt>
      <trkpt lat="50.31342" lon="4.40501">
        <ele>184.4</ele>
        <time>2022-03-17T14:35:38Z</time>
      </trkpt>
      <trkpt lat="50.3136" lon="4.4051">
        <ele>186.8</ele>
        <time>2022-03-17T14:36:17Z</time>
      </trkpt>
      <trkpt lat="50.31399" lon="4.40524">
        <ele>188.4</ele>
        <time>2022-03-17T14:36:28Z</time>
      </trkpt>
      <trkpt lat="50.3145" lon="4.40554">
        <ele>189.4</ele>
        <time>2022-03-17T14:36:39Z</time>
      </trkpt>
      <trkpt lat="50.31496" lon="4.40611">
        <ele>190</ele>
        <time>2022-03-17T14:36:50Z</time>
      </trkpt>
      <trkpt lat="50.31512" lon="4.40647">
        <ele>202.8</ele>
      </trkpt>
      <trkpt lat="50.31524" lon="4.40689">
        <ele>190.4</ele>
        <time>2022-03-17T14:37:02Z</time>
      </trkpt>
      <trkpt lat="50.31547" lon="4.40773">
        <ele>190.4</ele>
        <time>2022-03-17T14:37:15Z</time>
      </trkpt>
      <trkpt lat="50.3159" lon="4.40935">
        <ele>200.4</ele>
        <time>2022-03-17T14:37:38Z</time>
      </trkpt>
      <trkpt lat="50.31625" lon="4.40984">
        <ele>188.4</ele>
        <time>2022-03-17T14:37:48Z</time>
      </trkpt>
      <trkpt lat="50.31645" lon="4.40993">
        <ele>188.2</ele>
        <time>2022-03-17T14:37:52Z</time>
      </trkpt>
      <trkpt lat="50.31668" lon="4.40999">
        <ele>187.8</ele>
        <time>2022-03-17T14:37:57Z</time>
      </trkpt>
      <trkpt lat="50.31687" lon="4.41016">
        <ele>187.8</ele>
        <time>2022-03-17T14:38:01Z</time>
      </trkpt>
      <trkpt lat="50.317" lon="4.41041">
        <ele>195.3</ele>
        <time>2022-03-17T14:38:06Z</time>
      </trkpt>
      <trkpt lat="50.31707" lon="4.41071">
        <ele>194.5</ele>
      </trkpt>
      <trkpt lat="50.31697" lon="4.41104">
        <ele>186.2</ele>
        <time>2022-03-17T14:38:15Z</time>
      </trkpt>
      <trkpt lat="50.31669" lon="4.41197">
        <ele>184.6</ele>
        <time>2022-03-17T14:38:29Z</time>
      </trkpt>
      <trkpt lat="50.31667" lon="4.41237">
        <ele>183.8</ele>
        <time>2022-03-17T14:38:34Z</time>
      </trkpt>
      <trkpt lat="50.31661" lon="4.4129">
        <ele>182.4</ele>
        <time>2022-03-17T14:38:41Z</time>
      </trkpt>
      <trkpt lat="50.3166" lon="4.41322">
        <ele>193.9</ele>
      </trkpt>
      <trkpt lat="50.31671" lon="4.4133">
        <ele>181.6</ele>
        <time>2022-03-17T14:38:47Z</time>
      </trkpt>
      <trkpt lat="50.3169" lon="4.41321">
        <ele>180.6</ele>
        <time>2022-03-17T14:38:52Z</time>
      </trkpt>
      <trkpt lat="50.31741" lon="4.41272">
        <ele>179.8</ele>
        <time>2022-03-17T14:39:07Z</time>
      </trkpt>
      <trkpt lat="50.31757" lon="4.41235">
        <ele>180</ele>
        <time>2022-03-17T14:39:14Z</time>
      </trkpt>
      <trkpt lat="50.31765" lon="4.4121">
        <ele>179.6</ele>
        <time>2022-03-17T14:39:18Z</time>
      </trkpt>
      <trkpt lat="50.31779" lon="4.41171">
        <ele>179</ele>
        <time>2022-03-17T14:39:24Z</time>
      </trkpt>
      <trkpt lat="50.31796" lon="4.4114">
        <ele>178.6</ele>
        <time>2022-03-17T14:39:29Z</time>
      </trkpt>
      <trkpt lat="50.31817" lon="4.41122">
        <ele>179</ele>
        <time>2022-03-17T14:39:34Z</time>
      </trkpt>
      <trkpt lat="50.31828" lon="4.41118">
        <ele>192.5</ele>
      </trkpt>
      <trkpt lat="50.31854" lon="4.41131">
        <ele>180</ele>
        <time>2022-03-17T14:39:42Z</time>
      </trkpt>
      <trkpt lat="50.31888" lon="4.41167">
        <ele>180.2</ele>
        <time>2022-03-17T14:39:50Z</time>
      </trkpt>
      <trkpt lat="50.31917" lon="4.41214">
        <ele>180.2</ele>
        <time>2022-03-17T14:39:59Z</time>
      </trkpt>
      <trkpt lat="50.31959" lon="4.41304">
        <ele>181</ele>
        <time>2022-03-17T14:40:16Z</time>
      </trkpt>
      <trkpt lat="50.32007" lon="4.41403">
        <ele>180.6</ele>
        <time>2022-03-17T14:40:34Z</time>
      </trkpt>
      <trkpt lat="50.32037" lon="4.41455">
        <ele>179.6</ele>
        <time>2022-03-17T14:40:46Z</time>
      </trkpt>
      <trkpt lat="50.32064" lon="4.41484">
        <ele>177.8</ele>
        <time>2022-03-17T14:40:59Z</time>
      </trkpt>
      <trkpt lat="50.32089" lon="4.41493">
        <ele>187.2</ele>
        <time>2022-03-17T14:41:12Z</time>
      </trkpt>
      <trkpt lat="50.32058" lon="4.41663">
        <ele>176.8</ele>
        <time>2022-03-17T14:41:34Z</time>
      </trkpt>
      <trkpt lat="50.32029" lon="4.41806">
        <ele>180.8</ele>
        <time>2022-03-17T14:41:58Z</time>
      </trkpt>
      <trkpt lat="50.31997" lon="4.41985">
        <ele>185.6</ele>
        <time>2022-03-17T14:42:24Z</time>
      </trkpt>
      <trkpt lat="50.32004" lon="4.42076">
        <ele>205.7</ele>
      </trkpt>
      <trkpt lat="50.32025" lon="4.42167">
        <ele>190.2</ele>
        <time>2022-03-17T14:42:51Z</time>
      </trkpt>
      <trkpt lat="50.32085" lon="4.42406">
        <ele>196.6</ele>
        <time>2022-03-17T14:43:29Z</time>
      </trkpt>
      <trkpt lat="50.32082" lon="4.42493">
        <ele>198.6</ele>
        <time>2022-03-17T14:43:42Z</time>
      </trkpt>
      <trkpt lat="50.3208" lon="4.42575">
        <ele>200.4</ele>
        <time>2022-03-17T14:43:54Z</time>
      </trkpt>
      <trkpt lat="50.32079" lon="4.42619">
        <ele>216.8</ele>
      </trkpt>
      <trkpt lat="50.32094" lon="4.42639">
        <ele>202</ele>
        <time>2022-03-17T14:44:05Z</time>
      </trkpt>
      <trkpt lat="50.32162" lon="4.42724">
        <ele>204.8</ele>
        <time>2022-03-17T14:44:26Z</time>
      </trkpt>
      <trkpt lat="50.32203" lon="4.42772">
        <ele>206.4</ele>
        <time>2022-03-17T14:44:39Z</time>
      </trkpt>
      <trkpt lat="50.32285" lon="4.4285">
        <ele>209</ele>
        <time>2022-03-17T14:45:02Z</time>
      </trkpt>
      <trkpt lat="50.32392" lon="4.42921">
        <ele>211.6</ele>
        <time>2022-03-17T14:45:30Z</time>
      </trkpt>
      <trkpt lat="50.32482" lon="4.42969">
        <ele>213</ele>
        <time>2022-03-17T14:45:52Z</time>
      </trkpt>
      <trkpt lat="50.32522" lon="4.42983">
        <ele>213.4</ele>
        <time>2022-03-17T14:46:02Z</time>
      </trkpt>
      <trkpt lat="50.32544" lon="4.42989">
        <ele>213.6</ele>
        <time>2022-03-17T14:46:07Z</time>
      </trkpt>
      <trkpt lat="50.32562" lon="4.42993">
        <ele>213.8</ele>
        <time>2022-03-17T14:46:11Z</time>
      </trkpt>
      <trkpt lat="50.32656" lon="4.43018">
        <ele>214.4</ele>
        <time>2022-03-17T14:46:34Z</time>
      </trkpt>
      <trkpt lat="50.32691" lon="4.43038">
        <ele>219</ele>
        <time>2022-03-17T14:46:44Z</time>
      </trkpt>
      <trkpt lat="50.32708" lon="4.43049">
        <ele>219</ele>
      </trkpt>
      <trkpt lat="50.3272" lon="4.4303">
        <ele>214.6</ele>
        <time>2022-03-17T14:46:56Z</time>
      </trkpt>
      <trkpt lat="50.32734" lon="4.42993">
        <ele>214.8</ele>
        <time>2022-03-17T14:47:02Z</time>
      </trkpt>
      <trkpt lat="50.32771" lon="4.42906">
        <ele>215</ele>
        <time>2022-03-17T14:47:17Z</time>
      </trkpt>
      <trkpt lat="50.32825" lon="4.42763">
        <ele>215.2</ele>
        <time>2022-03-17T14:47:41Z</time>
      </trkpt>
      <trkpt lat="50.32879" lon="4.426">
        <ele>214.6</ele>
        <time>2022-03-17T14:48:06Z</time>
      </trkpt>
      <trkpt lat="50.32901" lon="4.42547">
        <ele>217.6</ele>
      </trkpt>
      <trkpt lat="50.32913" lon="4.42455">
        <ele>216.1</ele>
        <time>2022-03-17T14:48:28Z</time>
      </trkpt>
      <trkpt lat="50.32932" lon="4.42344">
        <ele>213</ele>
        <time>2022-03-17T14:48:42Z</time>
      </trkpt>
      <trkpt lat="50.32944" lon="4.42304">
        <ele>212.6</ele>
        <time>2022-03-17T14:48:49Z</time>
      </trkpt>
      <trkpt lat="50.32964" lon="4.42224">
        <ele>211.8</ele>
        <time>2022-03-17T14:49:01Z</time>
      </trkpt>
      <trkpt lat="50.32985" lon="4.42139">
        <ele>211.2</ele>
        <time>2022-03-17T14:49:14Z</time>
      </trkpt>
      <trkpt lat="50.32989" lon="4.42105">
        <ele>209.9</ele>
      </trkpt>
      <trkpt lat="50.33007" lon="4.42108">
        <ele>210.4</ele>
        <time>2022-03-17T14:49:22Z</time>
      </trkpt>
      <trkpt lat="50.33092" lon="4.42135">
        <ele>208.6</ele>
        <time>2022-03-17T14:49:41Z</time>
      </trkpt>
      <trkpt lat="50.33118" lon="4.42121">
        <ele>208.4</ele>
        <time>2022-03-17T14:49:47Z</time>
      </trkpt>
      <trkpt lat="50.33136" lon="4.42076">
        <ele>207.8</ele>
        <time>2022-03-17T14:49:54Z</time>
      </trkpt>
      <trkpt lat="50.33143" lon="4.42052">
        <ele>206.6</ele>
      </trkpt>
      <trkpt lat="50.33153" lon="4.42044">
        <ele>207.4</ele>
        <time>2022-03-17T14:50:01Z</time>
      </trkpt>
      <trkpt lat="50.33178" lon="4.42176">
        <ele>205.6</ele>
        <time>2022-03-17T14:50:14Z</time>
      </trkpt>
      <trkpt lat="50.3322" lon="4.42312">
        <ele>201.8</ele>
        <time>2022-03-17T14:50:26Z</time>
      </trkpt>
      <trkpt lat="50.33235" lon="4.42353">
        <ele>201</ele>
        <time>2022-03-17T14:50:31Z</time>
      </trkpt>
      <trkpt lat="50.3325" lon="4.4237">
        <ele>200.4</ele>
        <time>2022-03-17T14:50:35Z</time>
      </trkpt>
      <trkpt lat="50.33311" lon="4.42419">
        <ele>200.4</ele>
        <time>2022-03-17T14:50:53Z</time>
      </trkpt>
      <trkpt lat="50.33359" lon="4.42437">
        <ele>201</ele>
        <time>2022-03-17T14:51:06Z</time>
      </trkpt>
      <trkpt lat="50.33402" lon="4.42431">
        <ele>208.2</ele>
      </trkpt>
      <trkpt lat="50.33442" lon="4.42443">
        <ele>202</ele>
        <time>2022-03-17T14:51:28Z</time>
      </trkpt>
      <trkpt lat="50.33465" lon="4.42452">
        <ele>209.8</ele>
      </trkpt>
      <trkpt lat="50.33477" lon="4.42463">
        <ele>210.1</ele>
      </trkpt>
      <trkpt lat="50.33483" lon="4.42474">
        <ele>210.4</ele>
        <time>2022-03-17T14:51:40Z</time>
      </trkpt>
      <trkpt lat="50.33509" lon="4.42514">
        <ele>203.2</ele>
        <time>2022-03-17T14:51:52Z</time>
      </trkpt>
      <trkpt lat="50.33523" lon="4.42413">
        <ele>204.2</ele>
        <time>2022-03-17T14:52:08Z</time>
      </trkpt>
      <trkpt lat="50.33529" lon="4.42351">
        <ele>204.4</ele>
        <time>2022-03-17T14:52:19Z</time>
      </trkpt>
      <trkpt lat="50.33537" lon="4.423">
        <ele>204.6</ele>
        <time>2022-03-17T14:52:29Z</time>
      </trkpt>
      <trkpt lat="50.33535" lon="4.42281">
        <ele>202.4</ele>
        <time>2022-03-17T14:53:11Z</time>
      </trkpt>
      <trkpt lat="50.33536" lon="4.42253">
        <ele>201</ele>
        <time>2022-03-17T14:53:18Z</time>
      </trkpt>
      <trkpt lat="50.3355" lon="4.42201">
        <ele>208.8</ele>
        <time>2022-03-17T14:53:30Z</time>
      </trkpt>
      <trkpt lat="50.33538" lon="4.4216">
        <ele>208.3</ele>
        <time>2022-03-17T14:53:49Z</time>
      </trkpt>
      <trkpt lat="50.33524" lon="4.42107">
        <ele>206.9</ele>
        <time>2022-03-17T14:54:08Z</time>
      </trkpt>
      <trkpt lat="50.33499" lon="4.42042">
        <ele>205.4</ele>
        <time>2022-03-17T14:55:03Z</time>
      </trkpt>
      <trkpt lat="50.33501" lon="4.42007">
        <ele>205</ele>
        <time>2022-03-17T14:55:19Z</time>
      </trkpt>
      <trkpt lat="50.33504" lon="4.41971">
        <ele>204.1</ele>
        <time>2022-03-17T14:55:32Z</time>
      </trkpt>
      <trkpt lat="50.33513" lon="4.41947">
        <ele>203.5</ele>
        <time>2022-03-17T14:55:36Z</time>
      </trkpt>
      <trkpt lat="50.33531" lon="4.41901">
        <ele>202.6</ele>
      </trkpt>
      <trkpt lat="50.33536" lon="4.41886">
        <ele>202.2</ele>
        <time>2022-03-17T14:56:16Z</time>
      </trkpt>
      <trkpt lat="50.33559" lon="4.41836">
        <ele>201.4</ele>
      </trkpt>
      <trkpt lat="50.33581" lon="4.41811">
        <ele>202</ele>
      </trkpt>
      <trkpt lat="50.33611" lon="4.41782">
        <ele>203.2</ele>
        <time>2022-03-17T14:57:10Z</time>
      </trkpt>
      <trkpt lat="50.33628" lon="4.41759">
        <ele>203.6</ele>
      </trkpt>
      <trkpt lat="50.33639" lon="4.41743">
        <ele>204</ele>
        <time>2022-03-17T14:58:02Z</time>
      </trkpt>
      <trkpt lat="50.3365" lon="4.41733">
        <ele>204.4</ele>
        <time>2022-03-17T14:58:08Z</time>
      </trkpt>
      <trkpt lat="50.33668" lon="4.41733">
        <ele>205</ele>
      </trkpt>
      <trkpt lat="50.33684" lon="4.41738">
        <ele>205</ele>
        <time>2022-03-17T14:58:23Z</time>
      </trkpt>
      <trkpt lat="50.33713" lon="4.41772">
        <ele>205.9</ele>
      </trkpt>
      <trkpt lat="50.33744" lon="4.4182">
        <ele>206.6</ele>
        <time>2022-03-17T15:05:52Z</time>
      </trkpt>
      <trkpt lat="50.33798" lon="4.41963">
        <ele>210</ele>
      </trkpt>
      <trkpt lat="50.33815" lon="4.42016">
        <ele>209.9</ele>
      </trkpt>
      <trkpt lat="50.33918" lon="4.42183">
        <ele>208.4</ele>
      </trkpt>
      <trkpt lat="50.34001" lon="4.42124">
        <ele>201.4</ele>
      </trkpt>
      <trkpt lat="50.34056" lon="4.42102">
        <ele>198.7</ele>
      </trkpt>
      <trkpt lat="50.34072" lon="4.42106">
        <ele>200.1</ele>
      </trkpt>
      <trkpt lat="50.34098" lon="4.42086">
        <ele>202.1</ele>
        <time>2022-03-17T15:12:46Z</time>
      </trkpt>
      <trkpt lat="50.34112" lon="4.42161">
        <ele>203</ele>
        <time>2022-03-17T15:12:59Z</time>
      </trkpt>
      <trkpt lat="50.34119" lon="4.42204">
        <ele>203.5</ele>
        <time>2022-03-17T15:13:06Z</time>
      </trkpt>
      <trkpt lat="50.3413" lon="4.42261">
        <ele>203.3</ele>
        <time>2022-03-17T15:13:19Z</time>
      </trkpt>
      <trkpt lat="50.34144" lon="4.42306">
        <ele>204.4</ele>
        <time>2022-03-17T15:13:28Z</time>
      </trkpt>
      <trkpt lat="50.34176" lon="4.4242">
        <ele>207</ele>
        <time>2022-03-17T15:13:44Z</time>
      </trkpt>
      <trkpt lat="50.34189" lon="4.4248">
        <ele>208.4</ele>
        <time>2022-03-17T15:13:53Z</time>
      </trkpt>
      <trkpt lat="50.34217" lon="4.42587">
        <ele>174.2</ele>
        <time>2022-03-17T15:14:14Z</time>
      </trkpt>
      <trkpt lat="50.3422" lon="4.42614">
        <ele>176.2</ele>
        <time>2022-03-17T15:14:23Z</time>
      </trkpt>
      <trkpt lat="50.34235" lon="4.42641">
        <ele>178.4</ele>
        <time>2022-03-17T15:14:32Z</time>
      </trkpt>
      <trkpt lat="50.34255" lon="4.42697">
        <ele>179.6</ele>
        <time>2022-03-17T15:14:46Z</time>
      </trkpt>
      <trkpt lat="50.34274" lon="4.42741">
        <ele>180.4</ele>
        <time>2022-03-17T15:14:55Z</time>
      </trkpt>
      <trkpt lat="50.34313" lon="4.42811">
        <ele>212.3</ele>
        <time>2022-03-17T15:15:11Z</time>
      </trkpt>
      <trkpt lat="50.34332" lon="4.42838">
        <ele>212.9</ele>
      </trkpt>
      <trkpt lat="50.34361" lon="4.42832">
        <ele>185.4</ele>
        <time>2022-03-17T15:15:24Z</time>
      </trkpt>
      <trkpt lat="50.34398" lon="4.4282">
        <ele>188.4</ele>
        <time>2022-03-17T15:15:34Z</time>
      </trkpt>
      <trkpt lat="50.34416" lon="4.42825">
        <ele>214</ele>
        <time>2022-03-17T15:15:39Z</time>
      </trkpt>
      <trkpt lat="50.34452" lon="4.42827">
        <ele>214</ele>
        <time>2022-03-17T15:15:48Z</time>
      </trkpt>
      <trkpt lat="50.34468" lon="4.42787">
        <ele>214</ele>
        <time>2022-03-17T15:15:54Z</time>
      </trkpt>
      <trkpt lat="50.3448" lon="4.42738">
        <ele>214</ele>
        <time>2022-03-17T15:16:02Z</time>
      </trkpt>
      <trkpt lat="50.34496" lon="4.42683">
        <ele>196</ele>
        <time>2022-03-17T15:16:12Z</time>
      </trkpt>
      <trkpt lat="50.34508" lon="4.4266">
        <ele>197</ele>
        <time>2022-03-17T15:16:16Z</time>
      </trkpt>
      <trkpt lat="50.34522" lon="4.42626">
        <ele>213.1</ele>
        <time>2022-03-17T15:16:24Z</time>
      </trkpt>
      <trkpt lat="50.34555" lon="4.42644">
        <ele>199.6</ele>
        <time>2022-03-17T15:16:33Z</time>
      </trkpt>
      <trkpt lat="50.34596" lon="4.42683">
        <ele>200.4</ele>
        <time>2022-03-17T15:16:44Z</time>
      </trkpt>
      <trkpt lat="50.34614" lon="4.42706">
        <ele>200.4</ele>
        <time>2022-03-17T15:16:49Z</time>
      </trkpt>
      <trkpt lat="50.34648" lon="4.42767">
        <ele>211.3</ele>
        <time>2022-03-17T15:17:01Z</time>
      </trkpt>
      <trkpt lat="50.34673" lon="4.42806">
        <ele>210.8</ele>
      </trkpt>
      <trkpt lat="50.34678" lon="4.42817">
        <ele>211</ele>
        <time>2022-03-17T15:17:10Z</time>
      </trkpt>
      <trkpt lat="50.34704" lon="4.4286">
        <ele>211.6</ele>
        <time>2022-03-17T15:17:24Z</time>
      </trkpt>
      <trkpt lat="50.34714" lon="4.42874">
        <ele>211.6</ele>
        <time>2022-03-17T15:17:30Z</time>
      </trkpt>
      <trkpt lat="50.34736" lon="4.429">
        <ele>211.2</ele>
        <time>2022-03-17T15:17:38Z</time>
      </trkpt>
      <trkpt lat="50.34727" lon="4.42933">
        <ele>212.4</ele>
        <time>2022-03-17T15:17:47Z</time>
      </trkpt>
      <trkpt lat="50.3471" lon="4.42992">
        <ele>188.2</ele>
        <time>2022-03-17T15:17:57Z</time>
      </trkpt>
      <trkpt lat="50.34688" lon="4.43068">
        <ele>186.6</ele>
        <time>2022-03-17T15:18:10Z</time>
      </trkpt>
      <trkpt lat="50.34676" lon="4.43125">
        <ele>186</ele>
        <time>2022-03-17T15:18:22Z</time>
      </trkpt>
      <trkpt lat="50.34672" lon="4.43138">
        <ele>185.6</ele>
        <time>2022-03-17T15:18:26Z</time>
      </trkpt>
      <trkpt lat="50.34664" lon="4.43163">
        <ele>217.9</ele>
        <time>2022-03-17T15:18:32Z</time>
      </trkpt>
      <trkpt lat="50.34655" lon="4.43193">
        <ele>218</ele>
        <time>2022-03-17T15:18:40Z</time>
      </trkpt>
      <trkpt lat="50.34761" lon="4.43253">
        <ele>194.2</ele>
        <time>2022-03-17T15:19:04Z</time>
      </trkpt>
      <trkpt lat="50.34784" lon="4.43265">
        <ele>217.2</ele>
      </trkpt>
      <trkpt lat="50.348" lon="4.43305">
        <ele>218</ele>
        <time>2022-03-17T15:19:16Z</time>
      </trkpt>
      <trkpt lat="50.34854" lon="4.43418">
        <ele>200.4</ele>
        <time>2022-03-17T15:19:35Z</time>
      </trkpt>
      <trkpt lat="50.34881" lon="4.43478">
        <ele>202.8</ele>
        <time>2022-03-17T15:19:48Z</time>
      </trkpt>
      <trkpt lat="50.34845" lon="4.43513">
        <ele>204.4</ele>
        <time>2022-03-17T15:19:59Z</time>
      </trkpt>
      <trkpt lat="50.34767" lon="4.43589">
        <ele>207.4</ele>
        <time>2022-03-17T15:20:18Z</time>
      </trkpt>
      <trkpt lat="50.34735" lon="4.43629">
        <ele>209.2</ele>
        <time>2022-03-17T15:20:33Z</time>
      </trkpt>
      <trkpt lat="50.34738" lon="4.43628">
        <ele>221</ele>
      </trkpt>
      <trkpt lat="50.34757" lon="4.43662">
        <ele>221</ele>
        <time>2022-03-17T15:20:42Z</time>
      </trkpt>
      <trkpt lat="50.34769" lon="4.43683">
        <ele>221</ele>
        <time>2022-03-17T15:20:50Z</time>
      </trkpt>
      <trkpt lat="50.34768" lon="4.4373">
        <ele>220.9</ele>
        <time>2022-03-17T15:20:56Z</time>
      </trkpt>
      <trkpt lat="50.34757" lon="4.43747">
        <ele>220.3</ele>
      </trkpt>
      <trkpt lat="50.3475" lon="4.43752">
        <ele>220</ele>
      </trkpt>
      <trkpt lat="50.34741" lon="4.43776">
        <ele>220</ele>
        <time>2022-03-17T15:21:02Z</time>
      </trkpt>
      <trkpt lat="50.3473" lon="4.43821">
        <ele>219.3</ele>
        <time>2022-03-17T15:21:09Z</time>
      </trkpt>
      <trkpt lat="50.34716" lon="4.43851">
        <ele>219</ele>
      </trkpt>
      <trkpt lat="50.34717" lon="4.43864">
        <ele>219.1</ele>
      </trkpt>
      <trkpt lat="50.34723" lon="4.4391">
        <ele>206.4</ele>
        <time>2022-03-17T15:21:25Z</time>
      </trkpt>
      <trkpt lat="50.34745" lon="4.43957">
        <ele>220</ele>
        <time>2022-03-17T15:21:35Z</time>
      </trkpt>
      <trkpt lat="50.34766" lon="4.4399">
        <ele>220</ele>
        <time>2022-03-17T15:21:41Z</time>
      </trkpt>
      <trkpt lat="50.34791" lon="4.4402">
        <ele>204.8</ele>
        <time>2022-03-17T15:21:47Z</time>
      </trkpt>
      <trkpt lat="50.34809" lon="4.4403">
        <ele>219.9</ele>
        <time>2022-03-17T15:21:51Z</time>
      </trkpt>
      <trkpt lat="50.34827" lon="4.44062">
        <ele>218.6</ele>
      </trkpt>
      <trkpt lat="50.34831" lon="4.44077">
        <ele>217.6</ele>
        <time>2022-03-17T15:21:57Z</time>
      </trkpt>
      <trkpt lat="50.34843" lon="4.44122">
        <ele>216.5</ele>
        <time>2022-03-17T15:22:03Z</time>
      </trkpt>
      <trkpt lat="50.34854" lon="4.44153">
        <ele>205</ele>
        <time>2022-03-17T15:22:08Z</time>
      </trkpt>
      <trkpt lat="50.34854" lon="4.44173">
        <ele>216</ele>
        <time>2022-03-17T15:22:12Z</time>
      </trkpt>
      <trkpt lat="50.34853" lon="4.44183">
        <ele>215.7</ele>
      </trkpt>
      <trkpt lat="50.34852" lon="4.44208">
        <ele>214.9</ele>
      </trkpt>
      <trkpt lat="50.34859" lon="4.44227">
        <ele>205</ele>
        <time>2022-03-17T15:22:18Z</time>
      </trkpt>
      <trkpt lat="50.34877" lon="4.44269">
        <ele>204.2</ele>
        <time>2022-03-17T15:22:23Z</time>
      </trkpt>
      <trkpt lat="50.34908" lon="4.44315">
        <ele>210.2</ele>
      </trkpt>
      <trkpt lat="50.34922" lon="4.44323">
        <ele>210.5</ele>
        <time>2022-03-17T15:22:31Z</time>
      </trkpt>
      <trkpt lat="50.34928" lon="4.44325">
        <ele>210.9</ele>
      </trkpt>
      <trkpt lat="50.34932" lon="4.44328">
        <ele>211.2</ele>
      </trkpt>
      <trkpt lat="50.34935" lon="4.4433">
        <ele>211.4</ele>
      </trkpt>
      <trkpt lat="50.34946" lon="4.44339">
        <ele>211.9</ele>
      </trkpt>
      <trkpt lat="50.34975" lon="4.44362">
        <ele>213.1</ele>
        <time>2022-03-17T15:22:45Z</time>
      </trkpt>
      <trkpt lat="50.35007" lon="4.44385">
        <ele>213.4</ele>
        <time>2022-03-17T15:22:52Z</time>
      </trkpt>
      <trkpt lat="50.35021" lon="4.44392">
        <ele>213.6</ele>
      </trkpt>
      <trkpt lat="50.35016" lon="4.44422">
        <ele>200.4</ele>
        <time>2022-03-17T15:22:57Z</time>
      </trkpt>
      <trkpt lat="50.35018" lon="4.44421">
        <ele>212.6</ele>
      </trkpt>
      <trkpt lat="50.35015" lon="4.44475">
        <ele>210.9</ele>
        <time>2022-03-17T15:23:03Z</time>
      </trkpt>
      <trkpt lat="50.3501" lon="4.44513">
        <ele>199.8</ele>
        <time>2022-03-17T15:23:08Z</time>
      </trkpt>
      <trkpt lat="50.3498" lon="4.44535">
        <ele>199.4</ele>
        <time>2022-03-17T15:23:15Z</time>
      </trkpt>
      <trkpt lat="50.34971" lon="4.44539">
        <ele>207.6</ele>
      </trkpt>
      <trkpt lat="50.34955" lon="4.44553">
        <ele>207.7</ele>
      </trkpt>
      <trkpt lat="50.34927" lon="4.44565">
        <ele>208.7</ele>
      </trkpt>
      <trkpt lat="50.34878" lon="4.44609">
        <ele>200.2</ele>
        <time>2022-03-17T15:23:34Z</time>
      </trkpt>
      <trkpt lat="50.34843" lon="4.44644">
        <ele>200.8</ele>
        <time>2022-03-17T15:23:42Z</time>
      </trkpt>
      <trkpt lat="50.34814" lon="4.446">
        <ele>201.8</ele>
        <time>2022-03-17T15:23:50Z</time>
      </trkpt>
      <trkpt lat="50.34802" lon="4.44558">
        <ele>202.2</ele>
        <time>2022-03-17T15:23:56Z</time>
      </trkpt>
      <trkpt lat="50.34789" lon="4.44501">
        <ele>203</ele>
        <time>2022-03-17T15:24:05Z</time>
      </trkpt>
      <trkpt lat="50.34773" lon="4.44444">
        <ele>204.2</ele>
        <time>2022-03-17T15:24:20Z</time>
      </trkpt>
      <trkpt lat="50.34759" lon="4.44389">
        <ele>205.2</ele>
        <time>2022-03-17T15:24:34Z</time>
      </trkpt>
      <trkpt lat="50.34755" lon="4.44385">
        <ele>206.2</ele>
        <time>2022-03-17T15:24:50Z</time>
      </trkpt>
      <trkpt lat="50.34731" lon="4.44388">
        <ele>207</ele>
        <time>2022-03-17T15:24:58Z</time>
      </trkpt>
      <trkpt lat="50.3468" lon="4.44367">
        <ele>208.2</ele>
        <time>2022-03-17T15:25:15Z</time>
      </trkpt>
      <trkpt lat="50.34615" lon="4.44329">
        <ele>209.8</ele>
        <time>2022-03-17T15:25:32Z</time>
      </trkpt>
      <trkpt lat="50.34575" lon="4.44308">
        <ele>211</ele>
        <time>2022-03-17T15:25:46Z</time>
      </trkpt>
      <trkpt lat="50.3451" lon="4.44273">
        <ele>212.2</ele>
        <time>2022-03-17T15:26:03Z</time>
      </trkpt>
      <trkpt lat="50.34466" lon="4.44251">
        <ele>213.2</ele>
        <time>2022-03-17T15:26:15Z</time>
      </trkpt>
      <trkpt lat="50.34451" lon="4.44232">
        <ele>221.8</ele>
        <time>2022-03-17T15:26:22Z</time>
      </trkpt>
      <trkpt lat="50.34429" lon="4.44255">
        <ele>214.2</ele>
        <time>2022-03-17T15:26:26Z</time>
      </trkpt>
      <trkpt lat="50.34362" lon="4.44313">
        <ele>216.2</ele>
        <time>2022-03-17T15:26:45Z</time>
      </trkpt>
      <trkpt lat="50.34342" lon="4.44306">
        <ele>216.8</ele>
        <time>2022-03-17T15:26:52Z</time>
      </trkpt>
      <trkpt lat="50.34338" lon="4.44261">
        <ele>218</ele>
        <time>2022-03-17T15:27:07Z</time>
      </trkpt>
      <trkpt lat="50.34338" lon="4.44262">
        <ele>223.2</ele>
        <time>2022-03-17T15:29:53Z</time>
      </trkpt>
    </trkseg>
  </trk>
</gpx>